Time,TemperatureF,DewpointF,PressureIn,WindDirection,WindDirectionDegrees,WindSpeedMPH,WindSpeedGustMPH,Humidity,HourlyPrecipIn,Conditions,Clouds,dailyrainin,SoftwareType,DateUTC
2013-02-20 00:00:00,34.3,32.6,30.02,NNE,22,0.0,0.0,94,0.00,,,0.00,WUHU21636XXSP,2013-02-20 08:00:00,
2013-02-20 00:05:00,34.3,32.6,30.02,NNE,22,0.0,0.0,94,0.00,,,0.00,WUHU21636XXSP,2013-02-20 08:05:00,
2013-02-20 00:10:00,34.3,32.6,30.02,NNE,22,0.0,0.0,94,0.00,,,0.00,WUHU21636XXSP,2013-02-20 08:10:00,
2013-02-20 00:11:00,34.3,32.6,30.02,NNE,22,0.0,0.0,94,0.00,,,0.00,WUHU21636XXSP,2013-02-20 08:11:00,
2013-02-20 00:15:00,34.2,32.5,30.02,NNE,22,0.0,0.0,94,0.00,,,0.00,WUHU21636XXSP,2013-02-20 08:15:00,
2013-02-20 00:16:00,34.3,32.6,30.02,NNE,22,0.0,0.0,94,0.00,,,0.00,WUHU21636XXSP,2013-02-20 08:16:00,
2013-02-20 00:20:00,34.3,32.9,30.02,NNE,22,0.0,0.0,95,0.00,,,0.00,WUHU21636XXSP,2013-02-20 08:20:00,
2013-02-20 00:21:00,34.3,32.9,30.02,NNE,22,0.0,0.0,95,0.00,,,0.00,WUHU21636XXSP,2013-02-20 08:21:00,
2013-02-20 00:25:00,34.3,32.9,30.02,NNE,22,0.0,0.0,95,0.00,,,0.00,WUHU21636XXSP,2013-02-20 08:25:00,
2013-02-20 00:26:00,34.3,32.9,30.02,NNE,22,0.0,0.0,95,0.00,,,0.00,WUHU21636XXSP,2013-02-20 08:26:00,
2013-02-20 00:30:00,34.3,32.9,30.02,NNE,22,0.0,0.0,95,0.00,,,0.00,WUHU21636XXSP,2013-02-20 08:30:00,
2013-02-20 00:31:00,34.5,33.1,30.02,NNE,22,0.0,0.0,95,0.00,,,0.00,WUHU21636XXSP,2013-02-20 08:31:00,
2013-02-20 00:35:00,34.5,33.1,30.02,NNE,22,0.0,0.0,95,0.00,,,0.00,WUHU21636XXSP,2013-02-20 08:35:00,
2013-02-20 00:36:00,34.5,33.1,30.02,NNE,22,0.0,0.0,95,0.00,,,0.00,WUHU21636XXSP,2013-02-20 08:36:00,
2013-02-20 00:41:00,34.5,33.1,30.02,NNE,22,0.0,0.0,95,0.00,,,0.00,WUHU21636XXSP,2013-02-20 08:41:00,
2013-02-20 00:46:00,34.9,33.8,30.03,NNE,22,0.0,0.0,96,0.00,,,0.00,WUHU21636XXSP,2013-02-20 08:46:00,
2013-02-20 00:51:00,35.2,34.1,30.03,NNE,22,0.0,0.0,96,0.00,,,0.00,WUHU21636XXSP,2013-02-20 08:51:00,
2013-02-20 00:56:00,35.2,34.1,30.03,NNE,22,0.0,0.0,96,0.00,,,0.00,WUHU21636XXSP,2013-02-20 08:56:00,
2013-02-20 00:57:00,35.2,34.1,30.03,NNE,22,0.0,0.0,96,0.00,,,0.00,WUHU21636XXSP,2013-02-20 08:57:00,
2013-02-20 01:01:00,35.2,34.1,30.03,NNE,22,0.0,0.0,96,0.00,,,0.00,WUHU21636XXSP,2013-02-20 09:01:00,
2013-02-20 01:02:00,35.2,34.1,30.03,NNE,22,0.0,0.0,96,0.00,,,0.00,WUHU21636XXSP,2013-02-20 09:02:00,
2013-02-20 01:06:00,35.2,34.1,30.03,NNE,22,0.0,0.0,96,0.00,,,0.00,WUHU21636XXSP,2013-02-20 09:06:00,
2013-02-20 01:07:00,35.2,34.1,30.03,NNE,22,0.0,0.0,96,0.00,,,0.00,WUHU21636XXSP,2013-02-20 09:07:00,
2013-02-20 01:11:00,35.2,34.1,30.02,NNE,22,0.0,0.0,96,0.00,,,0.00,WUHU21636XXSP,2013-02-20 09:11:00,
2013-02-20 01:12:00,35.2,34.1,30.03,NNE,22,0.0,0.0,96,0.00,,,0.00,WUHU21636XXSP,2013-02-20 09:12:00,
2013-02-20 01:16:00,35.2,34.1,30.02,NNE,22,0.0,0.0,96,0.00,,,0.00,WUHU21636XXSP,2013-02-20 09:16:00,
2013-02-20 01:17:00,35.2,34.1,30.02,NNE,22,0.0,0.0,96,0.00,,,0.00,WUHU21636XXSP,2013-02-20 09:17:00,
2013-02-20 01:21:00,34.9,33.8,30.03,NNE,22,0.0,0.0,96,0.00,,,0.00,WUHU21636XXSP,2013-02-20 09:21:00,
2013-02-20 01:22:00,34.9,33.8,30.03,NNE,22,0.0,0.0,96,0.00,,,0.00,WUHU21636XXSP,2013-02-20 09:22:00,
2013-02-20 01:26:00,34.9,33.8,30.03,NNE,22,0.0,0.0,96,0.00,,,0.00,WUHU21636XXSP,2013-02-20 09:26:00,
2013-02-20 01:27:00,34.9,33.8,30.03,NNE,22,0.0,0.0,96,0.00,,,0.00,WUHU21636XXSP,2013-02-20 09:27:00,
2013-02-20 01:31:00,34.9,33.8,30.02,NNE,22,0.0,0.0,96,0.00,,,0.00,WUHU21636XXSP,2013-02-20 09:31:00,
2013-02-20 01:32:00,34.9,33.8,30.02,NNE,22,0.0,0.0,96,0.00,,,0.00,WUHU21636XXSP,2013-02-20 09:32:00,
2013-02-20 01:37:00,34.9,33.8,30.02,NNE,22,0.0,0.0,96,0.00,,,0.00,WUHU21636XXSP,2013-02-20 09:37:00,
2013-02-20 01:38:00,35.1,34.0,30.02,NNE,22,0.0,0.0,96,0.00,,,0.00,WUHU21636XXSP,2013-02-20 09:38:00,
2013-02-20 01:42:00,35.2,34.1,30.03,NNE,22,0.0,0.0,96,0.00,,,0.00,WUHU21636XXSP,2013-02-20 09:42:00,
2013-02-20 01:43:00,35.2,34.1,30.03,NNE,22,0.0,0.0,96,0.00,,,0.00,WUHU21636XXSP,2013-02-20 09:43:00,
2013-02-20 01:47:00,35.2,34.1,30.03,NNE,22,0.0,0.0,96,0.00,,,0.00,WUHU21636XXSP,2013-02-20 09:47:00,
2013-02-20 01:48:00,35.2,34.1,30.03,NNE,22,0.0,0.0,96,0.00,,,0.00,WUHU21636XXSP,2013-02-20 09:48:00,
2013-02-20 01:52:00,35.2,34.1,30.03,NNE,22,0.0,0.0,96,0.00,,,0.00,WUHU21636XXSP,2013-02-20 09:52:00,
2013-02-20 01:53:00,35.2,34.1,30.03,NNE,22,0.0,0.0,96,0.00,,,0.00,WUHU21636XXSP,2013-02-20 09:53:00,
2013-02-20 01:57:00,35.2,34.1,30.03,NNE,22,0.0,0.0,96,0.00,,,0.00,WUHU21636XXSP,2013-02-20 09:57:00,
2013-02-20 01:58:00,35.2,34.1,30.03,NNE,22,0.0,0.0,96,0.00,,,0.00,WUHU21636XXSP,2013-02-20 09:58:00,
2013-02-20 02:03:00,35.2,34.1,30.04,NNE,22,0.0,0.0,96,0.00,,,0.00,WUHU21636XXSP,2013-02-20 10:03:00,
2013-02-20 02:04:00,35.2,34.1,30.04,NNE,22,0.0,0.0,96,0.00,,,0.00,WUHU21636XXSP,2013-02-20 10:04:00,
2013-02-20 02:08:00,35.2,34.1,30.04,NNE,22,0.0,0.0,96,0.00,,,0.00,WUHU21636XXSP,2013-02-20 10:08:00,
2013-02-20 02:09:00,35.2,34.1,30.04,NNE,22,0.0,0.0,96,0.00,,,0.00,WUHU21636XXSP,2013-02-20 10:09:00,
2013-02-20 02:13:00,35.2,34.1,30.04,NNE,22,0.0,0.0,96,0.00,,,0.00,WUHU21636XXSP,2013-02-20 10:13:00,
2013-02-20 02:14:00,35.2,34.1,30.04,NNE,22,0.0,0.0,96,0.00,,,0.00,WUHU21636XXSP,2013-02-20 10:14:00,
2013-02-20 02:18:00,35.2,34.1,30.04,NNE,22,0.0,0.0,96,0.00,,,0.00,WUHU21636XXSP,2013-02-20 10:18:00,
2013-02-20 02:19:00,35.2,34.1,30.04,NNE,22,0.0,0.0,96,0.00,,,0.00,WUHU21636XXSP,2013-02-20 10:19:00,
2013-02-20 02:23:00,35.4,34.3,30.04,NNE,22,0.0,0.0,96,0.00,,,0.00,WUHU21636XXSP,2013-02-20 10:23:00,
2013-02-20 02:24:00,35.4,34.3,30.04,NNE,22,0.0,0.0,96,0.00,,,0.00,WUHU21636XXSP,2013-02-20 10:24:00,
2013-02-20 02:25:00,35.4,34.3,30.04,NNE,22,0.0,0.0,96,0.00,,,0.00,WUHU21636XXSP,2013-02-20 10:25:00,
2013-02-20 02:29:00,35.4,34.3,30.04,NNE,22,0.0,0.0,96,0.00,,,0.00,WUHU21636XXSP,2013-02-20 10:29:00,
2013-02-20 02:30:00,35.4,34.3,30.04,NNE,22,0.0,0.0,96,0.00,,,0.00,WUHU21636XXSP,2013-02-20 10:30:00,
2013-02-20 02:34:00,35.4,34.3,30.04,NNE,22,0.0,0.0,96,0.00,,,0.00,WUHU21636XXSP,2013-02-20 10:34:00,
2013-02-20 02:35:00,35.4,34.3,30.04,NNE,22,0.0,0.0,96,0.00,,,0.00,WUHU21636XXSP,2013-02-20 10:35:00,
2013-02-20 02:39:00,35.6,34.5,30.04,NNE,22,0.0,0.0,96,0.00,,,0.00,WUHU21636XXSP,2013-02-20 10:39:00,
2013-02-20 02:40:00,35.8,34.7,30.04,NNE,22,0.0,0.0,96,0.00,,,0.00,WUHU21636XXSP,2013-02-20 10:40:00,
2013-02-20 02:44:00,35.8,34.7,30.04,NNE,22,0.0,0.0,96,0.00,,,0.00,WUHU21636XXSP,2013-02-20 10:44:00,
2013-02-20 02:45:00,35.8,34.7,30.04,NNE,22,0.0,0.0,96,0.00,,,0.00,WUHU21636XXSP,2013-02-20 10:45:00,
2013-02-20 02:49:00,35.8,34.7,30.04,NNE,22,0.0,0.0,96,0.00,,,0.00,WUHU21636XXSP,2013-02-20 10:49:00,
2013-02-20 02:50:00,35.8,34.7,30.04,NNE,22,0.0,0.0,96,0.00,,,0.00,WUHU21636XXSP,2013-02-20 10:50:00,
2013-02-20 02:54:00,35.8,34.7,30.04,NNE,22,0.0,0.0,96,0.00,,,0.00,WUHU21636XXSP,2013-02-20 10:54:00,
2013-02-20 02:55:00,35.8,34.7,30.04,NNE,22,0.0,0.0,96,0.00,,,0.00,WUHU21636XXSP,2013-02-20 10:55:00,
2013-02-20 02:56:00,36.0,34.9,30.04,NNE,22,0.0,0.0,96,0.00,,,0.00,WUHU21636XXSP,2013-02-20 10:56:00,
2013-02-20 02:59:00,36.0,34.9,30.04,NNE,22,0.0,0.0,96,0.00,,,0.00,WUHU21636XXSP,2013-02-20 10:59:00,
2013-02-20 03:00:00,36.0,34.9,30.04,NNE,22,0.0,0.0,96,0.00,,,0.00,WUHU21636XXSP,2013-02-20 11:00:00,
2013-02-20 03:01:00,36.0,34.9,30.04,NNE,22,0.0,0.0,96,0.00,,,0.00,WUHU21636XXSP,2013-02-20 11:01:00,
2013-02-20 03:04:00,36.1,35.0,30.04,NNE,22,0.0,0.0,96,0.00,,,0.00,WUHU21636XXSP,2013-02-20 11:04:00,
2013-02-20 03:05:00,36.1,35.0,30.04,NNE,22,0.0,0.0,96,0.00,,,0.00,WUHU21636XXSP,2013-02-20 11:05:00,
2013-02-20 03:06:00,36.1,35.0,30.04,NNE,22,0.0,0.0,96,0.00,,,0.00,WUHU21636XXSP,2013-02-20 11:06:00,
2013-02-20 03:09:00,36.1,35.0,30.04,NNE,22,0.0,0.0,96,0.00,,,0.00,WUHU21636XXSP,2013-02-20 11:09:00,
2013-02-20 03:10:00,36.1,35.0,30.04,NNE,22,0.0,0.0,96,0.00,,,0.00,WUHU21636XXSP,2013-02-20 11:10:00,
2013-02-20 03:11:00,36.1,35.0,30.04,NNE,22,0.0,0.0,96,0.00,,,0.00,WUHU21636XXSP,2013-02-20 11:11:00,
2013-02-20 03:14:00,36.1,35.0,30.04,NNE,22,0.0,0.0,96,0.00,,,0.00,WUHU21636XXSP,2013-02-20 11:14:00,
2013-02-20 03:15:00,36.1,35.0,30.04,NNE,22,0.0,0.0,96,0.00,,,0.00,WUHU21636XXSP,2013-02-20 11:15:00,
2013-02-20 03:16:00,36.1,35.0,30.04,NNE,22,0.0,0.0,96,0.00,,,0.00,WUHU21636XXSP,2013-02-20 11:16:00,
2013-02-20 03:19:00,36.1,35.0,30.04,NNE,22,0.0,0.0,96,0.00,,,0.00,WUHU21636XXSP,2013-02-20 11:19:00,
2013-02-20 03:20:00,36.1,35.0,30.04,NNE,22,0.0,0.0,96,0.00,,,0.00,WUHU21636XXSP,2013-02-20 11:20:00,
2013-02-20 03:21:00,36.1,35.0,30.04,NNE,22,0.0,0.0,96,0.00,,,0.00,WUHU21636XXSP,2013-02-20 11:21:00,
2013-02-20 03:25:00,36.1,35.0,30.04,NNE,22,0.0,0.0,96,0.00,,,0.00,WUHU21636XXSP,2013-02-20 11:25:00,
2013-02-20 03:26:00,36.1,35.0,30.04,NNE,22,0.0,0.0,96,0.00,,,0.00,WUHU21636XXSP,2013-02-20 11:26:00,
2013-02-20 03:30:00,36.1,35.0,30.04,NNE,22,0.0,0.0,96,0.00,,,0.00,WUHU21636XXSP,2013-02-20 11:30:00,
2013-02-20 03:31:00,36.1,35.0,30.04,NNE,22,0.0,0.0,96,0.00,,,0.00,WUHU21636XXSP,2013-02-20 11:31:00,
2013-02-20 03:35:00,36.1,35.0,30.04,NNE,22,0.0,0.0,96,0.00,,,0.00,WUHU21636XXSP,2013-02-20 11:35:00,
2013-02-20 03:36:00,36.1,35.0,30.04,NNE,22,0.0,0.0,96,0.00,,,0.00,WUHU21636XXSP,2013-02-20 11:36:00,
2013-02-20 03:37:00,36.1,35.0,30.04,NNE,22,0.0,0.0,96,0.00,,,0.00,WUHU21636XXSP,2013-02-20 11:37:00,
2013-02-20 03:40:00,36.1,35.0,30.04,NNE,22,0.0,0.0,96,0.00,,,0.00,WUHU21636XXSP,2013-02-20 11:40:00,
2013-02-20 03:41:00,36.1,35.0,30.04,NNE,22,0.0,0.0,96,0.00,,,0.00,WUHU21636XXSP,2013-02-20 11:41:00,
2013-02-20 03:42:00,36.1,35.0,30.05,NNE,22,0.0,0.0,96,0.00,,,0.00,WUHU21636XXSP,2013-02-20 11:42:00,
2013-02-20 03:46:00,36.0,34.9,30.04,NNE,22,0.0,0.0,96,0.00,,,0.00,WUHU21636XXSP,2013-02-20 11:46:00,
2013-02-20 03:47:00,36.0,34.9,30.04,NNE,22,0.0,0.0,96,0.00,,,0.00,WUHU21636XXSP,2013-02-20 11:47:00,
2013-02-20 03:51:00,36.0,34.9,30.04,NNE,22,0.0,0.0,96,0.00,,,0.00,WUHU21636XXSP,2013-02-20 11:51:00,
2013-02-20 03:52:00,36.0,34.9,30.04,NNE,22,0.0,0.0,96,0.00,,,0.00,WUHU21636XXSP,2013-02-20 11:52:00,
2013-02-20 03:56:00,35.8,34.7,30.04,NNE,22,0.0,0.0,96,0.00,,,0.00,WUHU21636XXSP,2013-02-20 11:56:00,
2013-02-20 03:57:00,35.8,34.7,30.04,NNE,22,0.0,0.0,96,0.00,,,0.00,WUHU21636XXSP,2013-02-20 11:57:00,
2013-02-20 04:01:00,35.8,34.7,30.04,NNE,22,0.0,0.0,96,0.00,,,0.00,WUHU21636XXSP,2013-02-20 12:01:00,
2013-02-20 04:02:00,36.0,34.9,30.04,NNE,22,0.0,0.0,96,0.00,,,0.00,WUHU21636XXSP,2013-02-20 12:02:00,
2013-02-20 04:06:00,36.0,34.9,30.04,NNE,22,0.0,0.0,96,0.00,,,0.00,WUHU21636XXSP,2013-02-20 12:06:00,
2013-02-20 04:08:00,36.0,34.9,30.04,NNE,22,0.0,0.0,96,0.00,,,0.00,WUHU21636XXSP,2013-02-20 12:08:00,
2013-02-20 04:11:00,35.6,34.5,30.04,NNE,22,0.0,0.0,96,0.00,,,0.00,WUHU21636XXSP,2013-02-20 12:11:00,
2013-02-20 04:12:00,35.6,34.5,30.04,NNE,22,0.0,0.0,96,0.00,,,0.00,WUHU21636XXSP,2013-02-20 12:12:00,
2013-02-20 04:13:00,35.6,34.5,30.04,NNE,22,0.0,0.0,96,0.00,,,0.00,WUHU21636XXSP,2013-02-20 12:13:00,
2013-02-20 04:16:00,35.4,34.3,30.04,NNE,22,0.0,0.0,96,0.00,,,0.00,WUHU21636XXSP,2013-02-20 12:16:00,
2013-02-20 04:17:00,35.4,34.3,30.04,NNE,22,0.0,0.0,96,0.00,,,0.00,WUHU21636XXSP,2013-02-20 12:17:00,
2013-02-20 04:18:00,35.4,34.3,30.04,NNE,22,0.0,0.0,96,0.00,,,0.00,WUHU21636XXSP,2013-02-20 12:18:00,
2013-02-20 04:21:00,35.2,34.1,30.04,NNE,22,0.0,0.0,96,0.00,,,0.00,WUHU21636XXSP,2013-02-20 12:21:00,
2013-02-20 04:22:00,35.2,34.1,30.04,NNE,22,0.0,0.0,96,0.00,,,0.00,WUHU21636XXSP,2013-02-20 12:22:00,
2013-02-20 04:23:00,35.2,34.1,30.04,NNE,22,0.0,0.0,96,0.00,,,0.00,WUHU21636XXSP,2013-02-20 12:23:00,
2013-02-20 04:26:00,35.2,34.1,30.04,NNE,22,0.0,0.0,96,0.00,,,0.00,WUHU21636XXSP,2013-02-20 12:26:00,
2013-02-20 04:27:00,35.2,34.1,30.04,NNE,22,0.0,0.0,96,0.00,,,0.00,WUHU21636XXSP,2013-02-20 12:27:00,
2013-02-20 04:28:00,35.2,34.1,30.04,NNE,22,0.0,0.0,96,0.00,,,0.00,WUHU21636XXSP,2013-02-20 12:28:00,
2013-02-20 04:31:00,35.1,34.0,30.04,NNE,22,0.0,0.0,96,0.00,,,0.00,WUHU21636XXSP,2013-02-20 12:31:00,
2013-02-20 04:32:00,35.1,34.0,30.04,NNE,22,0.0,0.0,96,0.00,,,0.00,WUHU21636XXSP,2013-02-20 12:32:00,
2013-02-20 04:33:00,35.1,34.0,30.04,NNE,22,0.0,0.0,96,0.00,,,0.00,WUHU21636XXSP,2013-02-20 12:33:00,
2013-02-20 04:37:00,35.1,34.0,30.04,NNE,22,0.0,0.0,96,0.00,,,0.00,WUHU21636XXSP,2013-02-20 12:37:00,
2013-02-20 04:38:00,35.1,34.0,30.04,NNE,22,0.0,0.0,96,0.00,,,0.00,WUHU21636XXSP,2013-02-20 12:38:00,
2013-02-20 04:42:00,34.9,33.8,30.04,NNE,22,0.0,0.0,96,0.00,,,0.00,WUHU21636XXSP,2013-02-20 12:42:00,
2013-02-20 04:43:00,34.9,33.8,30.04,NNE,22,0.0,0.0,96,0.00,,,0.00,WUHU21636XXSP,2013-02-20 12:43:00,
2013-02-20 04:47:00,34.9,33.8,30.04,NNE,22,0.0,0.0,96,0.00,,,0.00,WUHU21636XXSP,2013-02-20 12:47:00,
2013-02-20 04:49:00,34.7,33.6,30.04,NNE,22,0.0,0.0,96,0.00,,,0.00,WUHU21636XXSP,2013-02-20 12:49:00,
2013-02-20 04:52:00,34.7,33.6,30.04,NNE,22,0.0,0.0,96,0.00,,,0.00,WUHU21636XXSP,2013-02-20 12:52:00,
2013-02-20 04:54:00,34.7,33.6,30.04,NNE,22,0.0,0.0,96,0.00,,,0.00,WUHU21636XXSP,2013-02-20 12:54:00,
2013-02-20 04:57:00,34.7,33.6,30.04,NNE,22,0.0,0.0,96,0.00,,,0.00,WUHU21636XXSP,2013-02-20 12:57:00,
2013-02-20 04:58:00,34.7,33.6,30.04,NNE,22,0.0,0.0,96,0.00,,,0.00,WUHU21636XXSP,2013-02-20 12:58:00,
2013-02-20 04:59:00,34.7,33.6,30.04,NNE,22,0.0,0.0,96,0.00,,,0.00,WUHU21636XXSP,2013-02-20 12:59:00,
2013-02-20 05:03:00,34.7,33.6,30.05,NNE,22,0.0,0.0,96,0.00,,,0.00,WUHU21636XXSP,2013-02-20 13:03:00,
2013-02-20 05:04:00,34.7,33.6,30.04,NNE,22,0.0,0.0,96,0.00,,,0.00,WUHU21636XXSP,2013-02-20 13:04:00,
2013-02-20 05:08:00,34.5,33.4,30.04,NNE,22,0.0,0.0,96,0.00,,,0.00,WUHU21636XXSP,2013-02-20 13:08:00,
2013-02-20 05:09:00,34.5,33.4,30.04,NNE,22,0.0,0.0,96,0.00,,,0.00,WUHU21636XXSP,2013-02-20 13:09:00,
2013-02-20 05:13:00,34.5,33.4,30.05,NNE,22,0.0,0.0,96,0.00,,,0.00,WUHU21636XXSP,2013-02-20 13:13:00,
2013-02-20 05:14:00,34.5,33.4,30.05,NNE,22,0.0,0.0,96,0.00,,,0.00,WUHU21636XXSP,2013-02-20 13:14:00,
2013-02-20 05:18:00,34.5,33.4,30.05,NNE,22,0.0,0.0,96,0.00,,,0.00,WUHU21636XXSP,2013-02-20 13:18:00,
2013-02-20 05:19:00,34.5,33.4,30.05,NNE,22,0.0,0.0,96,0.00,,,0.00,WUHU21636XXSP,2013-02-20 13:19:00,
2013-02-20 05:20:00,34.5,33.4,30.05,NNE,22,0.0,0.0,96,0.00,,,0.00,WUHU21636XXSP,2013-02-20 13:20:00,
2013-02-20 05:23:00,34.5,33.4,30.05,NNE,22,0.0,0.0,96,0.00,,,0.00,WUHU21636XXSP,2013-02-20 13:23:00,
2013-02-20 05:24:00,34.5,33.4,30.05,NNE,22,0.0,0.0,96,0.00,,,0.00,WUHU21636XXSP,2013-02-20 13:24:00,
2013-02-20 05:25:00,34.5,33.4,30.04,NNE,22,0.0,0.0,96,0.00,,,0.00,WUHU21636XXSP,2013-02-20 13:25:00,
2013-02-20 05:28:00,34.5,33.4,30.04,NNE,22,0.0,0.0,96,0.00,,,0.00,WUHU21636XXSP,2013-02-20 13:28:00,
2013-02-20 05:30:00,34.5,33.4,30.04,NNE,22,0.0,0.0,96,0.00,,,0.00,WUHU21636XXSP,2013-02-20 13:30:00,
2013-02-20 05:33:00,34.5,33.4,30.04,NNE,22,0.0,0.0,96,0.00,,,0.00,WUHU21636XXSP,2013-02-20 13:33:00,
2013-02-20 05:34:00,34.5,33.4,30.04,NNE,22,0.0,0.0,96,0.00,,,0.00,WUHU21636XXSP,2013-02-20 13:34:00,
2013-02-20 05:35:00,34.5,33.4,30.04,NNE,22,0.0,0.0,96,0.00,,,0.00,WUHU21636XXSP,2013-02-20 13:35:00,
2013-02-20 05:38:00,34.7,33.6,30.04,NNE,22,0.0,0.0,96,0.00,,,0.00,WUHU21636XXSP,2013-02-20 13:38:00,
2013-02-20 05:39:00,34.7,33.6,30.04,NNE,22,0.0,0.0,96,0.00,,,0.00,WUHU21636XXSP,2013-02-20 13:39:00,
2013-02-20 05:40:00,34.7,33.6,30.04,NNE,22,0.0,0.0,96,0.00,,,0.00,WUHU21636XXSP,2013-02-20 13:40:00,
2013-02-20 05:43:00,34.7,33.6,30.05,NNE,22,0.0,0.0,96,0.00,,,0.00,WUHU21636XXSP,2013-02-20 13:43:00,
2013-02-20 05:44:00,34.7,33.6,30.04,NNE,22,0.0,0.0,96,0.00,,,0.00,WUHU21636XXSP,2013-02-20 13:44:00,
2013-02-20 05:45:00,34.7,33.6,30.04,NNE,22,0.0,0.0,96,0.00,,,0.00,WUHU21636XXSP,2013-02-20 13:45:00,
2013-02-20 05:48:00,34.7,33.6,30.05,NNE,22,0.0,0.0,96,0.00,,,0.00,WUHU21636XXSP,2013-02-20 13:48:00,
2013-02-20 05:50:00,34.7,33.6,30.05,NNE,22,0.0,0.0,96,0.00,,,0.00,WUHU21636XXSP,2013-02-20 13:50:00,
2013-02-20 05:53:00,34.9,33.8,30.05,NNE,22,0.0,0.0,96,0.00,,,0.00,WUHU21636XXSP,2013-02-20 13:53:00,
2013-02-20 05:55:00,34.9,33.8,30.05,NNE,22,0.0,0.0,96,0.00,,,0.00,WUHU21636XXSP,2013-02-20 13:55:00,
2013-02-20 05:59:00,34.9,33.8,30.04,NNE,22,0.0,0.0,96,0.00,,,0.00,WUHU21636XXSP,2013-02-20 13:59:00,
2013-02-20 06:00:00,34.9,33.8,30.04,NNE,22,0.0,0.0,96,0.00,,,0.00,WUHU21636XXSP,2013-02-20 14:00:00,
2013-02-20 06:04:00,34.9,33.8,30.04,NNE,22,0.0,0.0,96,0.00,,,0.00,WUHU21636XXSP,2013-02-20 14:04:00,
2013-02-20 06:05:00,34.9,33.8,30.04,NNE,22,0.0,0.0,96,0.00,,,0.00,WUHU21636XXSP,2013-02-20 14:05:00,
2013-02-20 06:09:00,34.9,33.8,30.04,NNE,22,0.0,0.0,96,0.00,,,0.00,WUHU21636XXSP,2013-02-20 14:09:00,
2013-02-20 06:10:00,34.9,33.8,30.04,NNE,22,0.0,0.0,96,0.00,,,0.00,WUHU21636XXSP,2013-02-20 14:10:00,
2013-02-20 06:14:00,34.9,33.8,30.04,NNE,22,0.0,0.0,96,0.00,,,0.00,WUHU21636XXSP,2013-02-20 14:14:00,
2013-02-20 06:15:00,34.9,33.8,30.04,NNE,22,0.0,0.0,96,0.00,,,0.00,WUHU21636XXSP,2013-02-20 14:15:00,
2013-02-20 06:19:00,34.9,33.8,30.04,NNE,22,0.0,0.0,96,0.00,,,0.00,WUHU21636XXSP,2013-02-20 14:19:00,
2013-02-20 06:20:00,34.9,33.8,30.04,NNE,22,0.0,0.0,96,0.00,,,0.00,WUHU21636XXSP,2013-02-20 14:20:00,
2013-02-20 06:25:00,35.1,34.3,30.04,NNE,22,0.0,0.0,97,0.00,,,0.00,WUHU21636XXSP,2013-02-20 14:25:00,
2013-02-20 06:26:00,35.1,34.3,30.04,NNE,22,0.0,0.0,97,0.00,,,0.00,WUHU21636XXSP,2013-02-20 14:26:00,
2013-02-20 06:30:00,35.2,34.4,30.04,NNE,22,0.0,0.0,97,0.00,,,0.00,WUHU21636XXSP,2013-02-20 14:30:00,
2013-02-20 06:31:00,35.2,34.4,30.04,NNE,22,0.0,0.0,97,0.00,,,0.00,WUHU21636XXSP,2013-02-20 14:31:00,
2013-02-20 06:35:00,35.2,34.4,30.04,NNE,22,0.0,0.0,97,0.00,,,0.00,WUHU21636XXSP,2013-02-20 14:35:00,
2013-02-20 06:36:00,35.2,34.4,30.04,NNE,22,0.0,0.0,97,0.00,,,0.00,WUHU21636XXSP,2013-02-20 14:36:00,
2013-02-20 06:40:00,35.2,34.4,30.04,NNE,22,0.0,0.0,97,0.00,,,0.00,WUHU21636XXSP,2013-02-20 14:40:00,
2013-02-20 06:41:00,35.2,34.4,30.04,NNE,22,0.0,0.0,97,0.00,,,0.00,WUHU21636XXSP,2013-02-20 14:41:00,
2013-02-20 06:45:00,35.2,34.4,30.04,NNE,22,0.0,0.0,97,0.00,,,0.00,WUHU21636XXSP,2013-02-20 14:45:00,
2013-02-20 06:46:00,35.2,34.4,30.04,NNE,22,0.0,0.0,97,0.00,,,0.00,WUHU21636XXSP,2013-02-20 14:46:00,
2013-02-20 06:50:00,35.2,34.4,30.04,NNE,22,0.0,0.0,97,0.00,,,0.00,WUHU21636XXSP,2013-02-20 14:50:00,
2013-02-20 06:51:00,35.2,34.4,30.04,NNE,22,0.0,0.0,97,0.00,,,0.00,WUHU21636XXSP,2013-02-20 14:51:00,
2013-02-20 06:56:00,35.2,34.4,30.04,ENE,67,0.0,0.0,97,0.00,,,0.00,WUHU21636XXSP,2013-02-20 14:56:00,
2013-02-20 07:01:00,35.2,34.4,30.04,ENE,67,0.0,0.0,97,0.00,,,0.00,WUHU21636XXSP,2013-02-20 15:01:00,
2013-02-20 07:06:00,35.4,34.6,30.04,ENE,67,0.0,0.0,97,0.00,,,0.00,WUHU21636XXSP,2013-02-20 15:06:00,
2013-02-20 07:07:00,35.4,34.6,30.04,ENE,67,0.0,0.0,97,0.00,,,0.00,WUHU21636XXSP,2013-02-20 15:07:00,
2013-02-20 07:11:00,35.4,34.6,30.04,ENE,67,0.0,0.0,97,0.00,,,0.00,WUHU21636XXSP,2013-02-20 15:11:00,
2013-02-20 07:12:00,35.4,34.6,30.04,ENE,67,0.0,0.0,97,0.00,,,0.00,WUHU21636XXSP,2013-02-20 15:12:00,
2013-02-20 07:16:00,35.8,35.0,30.04,ENE,67,0.0,0.0,97,0.00,,,0.00,WUHU21636XXSP,2013-02-20 15:16:00,
2013-02-20 07:17:00,35.8,35.0,30.04,ENE,67,0.0,0.0,97,0.00,,,0.00,WUHU21636XXSP,2013-02-20 15:17:00,
2013-02-20 07:21:00,36.1,35.3,30.03,ENE,67,0.0,0.0,97,0.00,,,0.00,WUHU21636XXSP,2013-02-20 15:21:00,
2013-02-20 07:22:00,36.1,35.3,30.03,ENE,67,0.0,0.0,97,0.00,,,0.00,WUHU21636XXSP,2013-02-20 15:22:00,
2013-02-20 07:26:00,36.1,35.3,30.04,ENE,67,0.0,0.0,97,0.00,,,0.00,WUHU21636XXSP,2013-02-20 15:26:00,
2013-02-20 07:27:00,36.1,35.3,30.04,ENE,67,0.0,0.0,97,0.00,,,0.00,WUHU21636XXSP,2013-02-20 15:27:00,
2013-02-20 07:31:00,36.1,35.3,30.04,ENE,67,0.0,0.0,97,0.00,,,0.00,WUHU21636XXSP,2013-02-20 15:31:00,
2013-02-20 07:32:00,36.1,35.3,30.03,ENE,67,0.0,0.0,97,0.00,,,0.00,WUHU21636XXSP,2013-02-20 15:32:00,
2013-02-20 07:36:00,36.0,35.2,30.04,ENE,67,0.0,0.0,97,0.00,,,0.00,WUHU21636XXSP,2013-02-20 15:36:00,
2013-02-20 07:37:00,36.0,35.2,30.04,ENE,67,0.0,0.0,97,0.00,,,0.00,WUHU21636XXSP,2013-02-20 15:37:00,
2013-02-20 07:41:00,36.1,35.3,30.03,SE,135,0.0,0.0,97,0.00,,,0.00,WUHU21636XXSP,2013-02-20 15:41:00,
2013-02-20 07:42:00,36.3,35.5,30.03,SE,135,0.0,0.0,97,0.00,,,0.00,WUHU21636XXSP,2013-02-20 15:42:00,
2013-02-20 07:46:00,36.3,35.5,30.03,SE,135,0.0,0.0,97,0.00,,,0.00,WUHU21636XXSP,2013-02-20 15:46:00,
2013-02-20 07:47:00,36.3,35.5,30.03,SE,135,0.0,0.0,97,0.00,,,0.00,WUHU21636XXSP,2013-02-20 15:47:00,
2013-02-20 07:52:00,36.5,35.6,30.04,SE,135,0.0,0.0,97,0.00,,,0.00,WUHU21636XXSP,2013-02-20 15:52:00,
2013-02-20 07:57:00,36.7,35.8,30.04,SE,135,0.0,0.0,97,0.00,,,0.00,WUHU21636XXSP,2013-02-20 15:57:00,
2013-02-20 07:58:00,36.7,35.6,30.03,SE,135,0.0,0.0,96,0.00,,,0.00,WUHU21636XXSP,2013-02-20 15:58:00,
2013-02-20 08:02:00,36.7,35.6,30.03,SE,135,0.0,0.0,96,0.00,,,0.00,WUHU21636XXSP,2013-02-20 16:02:00,
2013-02-20 08:03:00,36.7,35.6,30.04,SE,135,0.0,0.0,96,0.00,,,0.00,WUHU21636XXSP,2013-02-20 16:03:00,
2013-02-20 08:07:00,37.0,35.9,30.03,SE,135,0.0,0.0,96,0.00,,,0.00,WUHU21636XXSP,2013-02-20 16:07:00,
2013-02-20 08:08:00,37.0,35.9,30.03,SE,135,0.0,0.0,96,0.00,,,0.00,WUHU21636XXSP,2013-02-20 16:08:00,
2013-02-20 08:12:00,37.0,35.9,30.03,SSE,157,0.0,0.0,96,0.00,,,0.00,WUHU21636XXSP,2013-02-20 16:12:00,
2013-02-20 08:13:00,37.0,35.9,30.03,SSE,157,0.0,0.0,96,0.00,,,0.00,WUHU21636XXSP,2013-02-20 16:13:00,
2013-02-20 08:17:00,37.2,36.1,30.03,SSE,157,0.0,0.0,96,0.00,,,0.00,WUHU21636XXSP,2013-02-20 16:17:00,
2013-02-20 08:18:00,37.2,36.1,30.03,SSE,157,0.0,0.0,96,0.00,,,0.00,WUHU21636XXSP,2013-02-20 16:18:00,
2013-02-20 08:22:00,37.2,36.1,30.03,SSE,157,0.0,0.0,96,0.00,,,0.00,WUHU21636XXSP,2013-02-20 16:22:00,
2013-02-20 08:23:00,37.2,36.1,30.03,SSE,157,0.0,0.0,96,0.00,,,0.00,WUHU21636XXSP,2013-02-20 16:23:00,
2013-02-20 08:27:00,37.2,36.1,30.03,SE,135,2.9,2.9,96,0.00,,,0.00,WUHU21636XXSP,2013-02-20 16:27:00,
2013-02-20 08:28:00,37.2,36.1,30.03,SE,135,2.9,2.9,96,0.00,,,0.00,WUHU21636XXSP,2013-02-20 16:28:00,
2013-02-20 08:32:00,37.2,36.1,30.03,SE,135,0.0,2.9,96,0.00,,,0.00,WUHU21636XXSP,2013-02-20 16:32:00,
2013-02-20 08:33:00,37.2,36.1,30.03,SE,135,0.0,2.9,96,0.00,,,0.00,WUHU21636XXSP,2013-02-20 16:33:00,
2013-02-20 08:34:00,37.2,36.1,30.03,SE,135,0.0,2.9,96,0.00,,,0.00,WUHU21636XXSP,2013-02-20 16:34:00,
2013-02-20 08:38:00,37.2,36.1,30.03,SE,135,0.0,2.9,96,0.00,,,0.00,WUHU21636XXSP,2013-02-20 16:38:00,
2013-02-20 08:39:00,37.2,36.1,30.03,SE,135,0.0,0.0,96,0.00,,,0.00,WUHU21636XXSP,2013-02-20 16:39:00,
2013-02-20 08:43:00,37.2,36.1,30.03,SE,135,0.0,0.0,96,0.00,,,0.00,WUHU21636XXSP,2013-02-20 16:43:00,
2013-02-20 08:44:00,37.2,36.1,30.04,SE,135,0.0,0.0,96,0.00,,,0.00,WUHU21636XXSP,2013-02-20 16:44:00,
2013-02-20 08:48:00,37.4,36.3,30.03,SSW,202,0.0,0.0,96,0.00,,,0.00,WUHU21636XXSP,2013-02-20 16:48:00,
2013-02-20 08:49:00,37.6,36.5,30.03,SSW,202,0.0,0.0,96,0.00,,,0.00,WUHU21636XXSP,2013-02-20 16:49:00,
2013-02-20 08:53:00,37.6,36.5,30.03,SSE,157,0.0,0.0,96,0.00,,,0.00,WUHU21636XXSP,2013-02-20 16:53:00,
2013-02-20 08:54:00,37.6,36.5,30.04,SSE,157,0.0,0.0,96,0.00,,,0.00,WUHU21636XXSP,2013-02-20 16:54:00,
2013-02-20 08:55:00,37.6,36.5,30.04,SSE,157,0.0,0.0,96,0.00,,,0.00,WUHU21636XXSP,2013-02-20 16:55:00,
2013-02-20 08:58:00,37.8,36.7,30.04,South,180,0.0,0.0,96,0.00,,,0.00,WUHU21636XXSP,2013-02-20 16:58:00,
2013-02-20 08:59:00,37.8,36.7,30.04,South,180,0.0,0.0,96,0.00,,,0.00,WUHU21636XXSP,2013-02-20 16:59:00,
2013-02-20 09:00:00,37.8,36.7,30.04,SSE,157,0.0,0.0,96,0.00,,,0.00,WUHU21636XXSP,2013-02-20 17:00:00,
2013-02-20 09:03:00,37.9,36.8,30.04,SSE,157,0.0,0.0,96,0.00,,,0.00,WUHU21636XXSP,2013-02-20 17:03:00,
2013-02-20 09:04:00,37.9,36.8,30.04,SSE,157,0.0,0.0,96,0.00,,,0.00,WUHU21636XXSP,2013-02-20 17:04:00,
2013-02-20 09:05:00,37.9,36.8,30.04,SSE,157,0.0,0.0,96,0.00,,,0.00,WUHU21636XXSP,2013-02-20 17:05:00,
2013-02-20 09:08:00,38.1,37.0,30.04,SSE,157,3.1,3.1,96,0.00,,,0.00,WUHU21636XXSP,2013-02-20 17:08:00,
2013-02-20 09:10:00,38.1,37.0,30.04,SSE,157,3.1,3.1,96,0.00,,,0.00,WUHU21636XXSP,2013-02-20 17:10:00,
2013-02-20 09:13:00,38.1,36.7,30.04,SSE,157,1.1,3.1,95,0.00,,,0.00,WUHU21636XXSP,2013-02-20 17:13:00,
2013-02-20 09:15:00,38.1,36.7,30.04,SSE,157,1.1,3.1,95,0.00,,,0.00,WUHU21636XXSP,2013-02-20 17:15:00,
2013-02-20 09:18:00,38.3,36.9,30.04,WSW,247,1.7,1.7,95,0.00,,,0.00,WUHU21636XXSP,2013-02-20 17:18:00,
2013-02-20 09:20:00,38.1,36.7,30.04,WSW,247,1.7,1.7,95,0.00,,,0.00,WUHU21636XXSP,2013-02-20 17:20:00,
2013-02-20 09:23:00,38.3,36.9,30.04,SSE,157,5.5,6.7,95,0.00,,,0.00,WUHU21636XXSP,2013-02-20 17:23:00,
2013-02-20 09:25:00,38.5,37.1,30.04,SSE,157,4.1,6.7,95,0.00,,,0.00,WUHU21636XXSP,2013-02-20 17:25:00,
2013-02-20 09:28:00,38.5,37.1,30.04,SE,135,4.4,6.7,95,0.00,,,0.00,WUHU21636XXSP,2013-02-20 17:28:00,
2013-02-20 09:30:00,38.5,37.1,30.04,SE,135,0.0,6.7,95,0.00,,,0.00,WUHU21636XXSP,2013-02-20 17:30:00,
2013-02-20 09:33:00,38.5,37.1,30.04,SSW,202,0.6,5.5,95,0.00,,,0.00,WUHU21636XXSP,2013-02-20 17:33:00,
2013-02-20 09:35:00,38.5,37.1,30.03,SSE,157,1.7,4.4,95,0.00,,,0.00,WUHU21636XXSP,2013-02-20 17:35:00,
2013-02-20 09:38:00,38.7,37.3,30.03,South,180,4.6,4.6,95,0.00,,,0.00,WUHU21636XXSP,2013-02-20 17:38:00,
2013-02-20 09:40:00,38.7,37.3,30.03,South,180,4.6,4.6,95,0.00,,,0.00,WUHU21636XXSP,2013-02-20 17:40:00,
2013-02-20 09:41:00,38.7,37.3,30.03,South,180,4.6,4.6,95,0.00,,,0.00,WUHU21636XXSP,2013-02-20 17:41:00,
2013-02-20 09:43:00,38.8,37.1,30.03,South,180,4.9,4.9,94,0.00,,,0.00,WUHU21636XXSP,2013-02-20 17:43:00,
2013-02-20 09:45:00,38.8,37.1,30.03,South,180,4.9,4.9,94,0.00,,,0.00,WUHU21636XXSP,2013-02-20 17:45:00,
2013-02-20 09:46:00,38.8,37.1,30.03,South,180,4.4,4.9,94,0.00,,,0.00,WUHU21636XXSP,2013-02-20 17:46:00,
2013-02-20 09:48:00,39.0,37.6,30.02,South,180,2.6,4.9,95,0.00,,,0.00,WUHU21636XXSP,2013-02-20 17:48:00,
2013-02-20 09:50:00,39.2,37.8,30.02,SE,135,0.6,4.9,95,0.00,,,0.00,WUHU21636XXSP,2013-02-20 17:50:00,
2013-02-20 09:51:00,39.2,37.8,30.02,SE,135,0.6,4.9,95,0.00,,,0.00,WUHU21636XXSP,2013-02-20 17:51:00,
2013-02-20 09:54:00,39.2,37.8,30.02,SSW,202,1.1,4.9,95,0.00,,,0.00,WUHU21636XXSP,2013-02-20 17:54:00,
2013-02-20 09:56:00,39.4,38.0,30.02,SSW,202,1.1,2.6,95,0.00,,,0.00,WUHU21636XXSP,2013-02-20 17:56:00,
2013-02-20 09:59:00,39.6,38.2,30.02,SE,138,2.0,2.4,95,0.00,,,0.00,WUHU21636XXSP,2013-02-20 17:59:00,
2013-02-20 10:01:00,39.7,38.0,30.02,SSE,157,1.1,2.4,94,0.00,,,0.00,WUHU21636XXSP,2013-02-20 18:01:00,
2013-02-20 10:04:00,39.9,38.2,30.02,South,179,4.9,8.7,94,0.00,,,0.00,WUHU21636XXSP,2013-02-20 18:04:00,
2013-02-20 10:06:00,39.7,38.0,30.02,SSE,157,1.6,8.7,94,0.00,,,0.00,WUHU21636XXSP,2013-02-20 18:06:00,
2013-02-20 10:09:00,39.9,38.2,30.02,South,180,0.0,8.7,94,0.00,,,0.00,WUHU21636XXSP,2013-02-20 18:09:00,
2013-02-20 10:11:00,40.1,38.1,30.02,SSW,202,5.3,8.7,93,0.00,,,0.00,WUHU21636XXSP,2013-02-20 18:11:00,
2013-02-20 10:14:00,40.1,38.1,30.02,SSW,202,5.3,5.3,93,0.00,,,0.00,WUHU21636XXSP,2013-02-20 18:14:00,
2013-02-20 10:16:00,40.3,38.3,30.02,South,180,3.3,5.3,93,0.00,,,0.00,WUHU21636XXSP,2013-02-20 18:16:00,
2013-02-20 10:19:00,40.3,38.3,30.02,SSW,202,1.1,5.3,93,0.00,,,0.00,WUHU21636XXSP,2013-02-20 18:19:00,
2013-02-20 10:21:00,40.3,38.3,30.02,SSW,202,1.1,5.3,93,0.00,,,0.00,WUHU21636XXSP,2013-02-20 18:21:00,
2013-02-20 10:22:00,40.3,38.3,30.02,South,180,1.3,5.3,93,0.00,,,0.00,WUHU21636XXSP,2013-02-20 18:22:00,
2013-02-20 10:24:00,40.3,38.0,30.02,SSE,157,3.1,3.3,92,0.00,,,0.00,WUHU21636XXSP,2013-02-20 18:24:00,
2013-02-20 10:26:00,40.3,38.0,30.03,SSE,157,2.6,3.3,92,0.00,,,0.00,WUHU21636XXSP,2013-02-20 18:26:00,
2013-02-20 10:27:00,40.3,38.0,30.03,SSE,157,2.5,3.3,92,0.00,,,0.00,WUHU21636XXSP,2013-02-20 18:27:00,
2013-02-20 10:29:00,40.5,38.2,30.03,SSE,167,0.7,3.1,92,0.00,,,0.00,WUHU21636XXSP,2013-02-20 18:29:00,
2013-02-20 10:31:00,40.5,37.9,30.03,SSE,150,3.9,8.0,91,0.00,,,0.00,WUHU21636XXSP,2013-02-20 18:31:00,
2013-02-20 10:32:00,40.5,37.9,30.03,SSE,149,4.3,8.0,91,0.00,,,0.00,WUHU21636XXSP,2013-02-20 18:32:00,
2013-02-20 10:34:00,40.3,37.7,30.03,SSW,202,6.0,10.7,91,0.00,,,0.00,WUHU21636XXSP,2013-02-20 18:34:00,
2013-02-20 10:37:00,40.3,37.7,30.03,South,188,2.3,10.7,91,0.00,,,0.00,WUHU21636XXSP,2013-02-20 18:37:00,
2013-02-20 10:40:00,40.6,38.0,30.03,SW,225,0.0,10.7,91,0.00,,,0.00,WUHU21636XXSP,2013-02-20 18:40:00,
2013-02-20 10:42:00,40.5,37.9,30.03,WSW,247,0.0,10.7,91,0.00,,,0.00,WUHU21636XXSP,2013-02-20 18:42:00,
2013-02-20 10:45:00,40.6,38.0,30.03,SSE,157,4.2,6.0,91,0.00,,,0.00,WUHU21636XXSP,2013-02-20 18:45:00,
2013-02-20 10:47:00,40.6,38.0,30.03,South,169,3.7,4.2,91,0.00,,,0.00,WUHU21636XXSP,2013-02-20 18:47:00,
2013-02-20 10:50:00,40.3,37.7,30.03,SSW,202,6.9,10.2,91,0.00,,,0.00,WUHU21636XXSP,2013-02-20 18:50:00,
2013-02-20 10:53:00,40.3,38.0,30.03,SE,142,2.8,10.2,92,0.00,,,0.00,WUHU21636XXSP,2013-02-20 18:53:00,
2013-02-20 10:55:00,40.6,38.3,30.04,South,180,2.2,10.2,92,0.00,,,0.00,WUHU21636XXSP,2013-02-20 18:55:00,
2013-02-20 10:58:00,40.6,38.3,30.03,WSW,247,3.5,10.2,92,0.00,,,0.00,WUHU21636XXSP,2013-02-20 18:58:00,
2013-02-20 11:00:00,40.8,38.5,30.03,WSW,247,3.5,6.9,92,0.00,,,0.00,WUHU21636XXSP,2013-02-20 19:00:00,
2013-02-20 11:03:00,40.8,38.2,30.03,SSE,157,1.9,6.2,91,0.00,,,0.00,WUHU21636XXSP,2013-02-20 19:03:00,
2013-02-20 11:04:00,40.8,38.2,30.03,SSE,157,0.8,6.2,91,0.00,,,0.00,WUHU21636XXSP,2013-02-20 19:04:00,
2013-02-20 11:05:00,41.0,38.4,30.04,SSE,157,1.3,6.2,91,0.00,,,0.00,WUHU21636XXSP,2013-02-20 19:05:00,
2013-02-20 11:08:00,41.0,38.4,30.03,SSE,155,3.1,6.2,91,0.00,,,0.00,WUHU21636XXSP,2013-02-20 19:08:00,
2013-02-20 11:09:00,41.0,38.4,30.03,SSE,152,2.7,6.2,91,0.00,,,0.00,WUHU21636XXSP,2013-02-20 19:09:00,
2013-02-20 11:10:00,41.0,38.4,30.04,SE,135,1.7,6.2,91,0.00,,,0.00,WUHU21636XXSP,2013-02-20 19:10:00,
2013-02-20 11:13:00,41.2,38.3,30.03,SSE,157,3.9,6.9,90,0.00,,,0.00,WUHU21636XXSP,2013-02-20 19:13:00,
2013-02-20 11:14:00,41.2,38.6,30.03,SSE,157,3.7,6.9,91,0.00,,,0.00,WUHU21636XXSP,2013-02-20 19:14:00,
2013-02-20 11:15:00,41.2,38.6,30.03,SSE,157,3.3,6.9,91,0.00,,,0.00,WUHU21636XXSP,2013-02-20 19:15:00,
2013-02-20 11:18:00,41.2,38.3,30.03,ENE,67,2.9,6.9,90,0.00,,,0.00,WUHU21636XXSP,2013-02-20 19:18:00,
2013-02-20 11:19:00,41.2,38.3,30.03,ENE,67,2.9,6.9,90,0.00,,,0.00,WUHU21636XXSP,2013-02-20 19:19:00,
2013-02-20 11:20:00,41.4,38.5,30.04,ENE,74,2.7,6.9,90,0.00,,,0.00,WUHU21636XXSP,2013-02-20 19:20:00,
2013-02-20 11:24:00,41.2,38.3,30.03,SE,135,2.0,3.3,90,0.00,,,0.00,WUHU21636XXSP,2013-02-20 19:24:00,
2013-02-20 11:25:00,41.2,38.3,30.04,SSE,157,3.8,3.8,90,0.00,,,0.00,WUHU21636XXSP,2013-02-20 19:25:00,
2013-02-20 11:29:00,41.4,38.5,30.04,SSE,157,1.7,3.8,90,0.00,,,0.00,WUHU21636XXSP,2013-02-20 19:29:00,
2013-02-20 11:30:00,41.4,38.5,30.03,SSE,157,1.7,3.8,90,0.00,,,0.00,WUHU21636XXSP,2013-02-20 19:30:00,
2013-02-20 11:34:00,41.2,38.3,30.03,SE,135,1.7,3.8,90,0.00,,,0.00,WUHU21636XXSP,2013-02-20 19:34:00,
2013-02-20 11:35:00,41.2,38.3,30.03,SSW,202,0.4,3.8,90,0.00,,,0.00,WUHU21636XXSP,2013-02-20 19:35:00,
2013-02-20 11:39:00,41.2,38.3,30.02,South,180,2.4,2.4,90,0.00,,,0.00,WUHU21636XXSP,2013-02-20 19:39:00,
2013-02-20 11:40:00,41.4,38.5,30.02,South,180,2.4,2.4,90,0.00,,,0.00,WUHU21636XXSP,2013-02-20 19:40:00,
2013-02-20 11:44:00,41.7,38.8,30.02,SSE,157,3.3,3.3,90,0.00,,,0.00,WUHU21636XXSP,2013-02-20 19:44:00,
2013-02-20 11:45:00,41.7,38.8,30.02,SSE,157,3.3,3.3,90,0.00,,,0.00,WUHU21636XXSP,2013-02-20 19:45:00,
2013-02-20 11:49:00,42.1,39.2,30.02,NE,45,0.0,3.3,90,0.00,,,0.00,WUHU21636XXSP,2013-02-20 19:49:00,
2013-02-20 11:50:00,42.1,39.2,30.02,NE,45,0.0,3.3,90,0.00,,,0.00,WUHU21636XXSP,2013-02-20 19:50:00,
2013-02-20 11:51:00,42.4,39.2,30.02,SSW,202,6.0,8.7,89,0.00,,,0.00,WUHU21636XXSP,2013-02-20 19:51:00,
2013-02-20 11:54:00,42.4,38.9,30.02,SSE,157,1.3,8.7,88,0.00,,,0.00,WUHU21636XXSP,2013-02-20 19:54:00,
2013-02-20 11:55:00,42.4,38.9,30.02,SSE,157,1.3,8.7,88,0.00,,,0.00,WUHU21636XXSP,2013-02-20 19:55:00,
2013-02-20 11:56:00,42.6,39.1,30.02,West,270,1.3,8.7,88,0.00,,,0.00,WUHU21636XXSP,2013-02-20 19:56:00,
2013-02-20 12:00:00,42.8,39.3,30.02,WNW,292,2.2,8.7,88,0.00,,,0.00,WUHU21636XXSP,2013-02-20 20:00:00,
2013-02-20 12:01:00,42.6,39.1,30.02,South,180,3.3,3.3,88,0.00,,,0.00,WUHU21636XXSP,2013-02-20 20:01:00,
2013-02-20 12:05:00,42.6,39.1,30.02,South,180,2.0,3.3,88,0.00,,,0.00,WUHU21636XXSP,2013-02-20 20:05:00,
2013-02-20 12:07:00,42.6,39.1,30.01,SSE,157,1.5,3.3,88,0.00,,,0.00,WUHU21636XXSP,2013-02-20 20:07:00,
2013-02-20 12:10:00,42.8,39.3,30.01,SSE,157,1.5,3.3,88,0.00,,,0.00,WUHU21636XXSP,2013-02-20 20:10:00,
2013-02-20 12:12:00,42.6,38.8,30.01,South,172,5.4,12.0,87,0.00,,,0.00,WUHU21636XXSP,2013-02-20 20:12:00,
2013-02-20 12:15:00,42.8,39.3,30.01,SW,225,3.5,12.0,88,0.00,,,0.00,WUHU21636XXSP,2013-02-20 20:15:00,
2013-02-20 12:17:00,42.6,39.1,30.02,SW,225,3.5,12.0,88,0.00,,,0.00,WUHU21636XXSP,2013-02-20 20:17:00,
2013-02-20 12:20:00,43.0,39.5,30.01,SSE,157,0.0,12.0,88,0.00,,,0.00,WUHU21636XXSP,2013-02-20 20:20:00,
2013-02-20 12:21:00,43.0,39.2,30.01,SSE,157,0.0,12.0,87,0.00,,,0.00,WUHU21636XXSP,2013-02-20 20:21:00,
2013-02-20 12:22:00,43.0,39.5,30.01,SSE,157,7.1,8.2,88,0.00,,,0.00,WUHU21636XXSP,2013-02-20 20:22:00,
2013-02-20 12:25:00,43.0,39.2,30.02,South,180,4.0,8.2,87,0.00,,,0.00,WUHU21636XXSP,2013-02-20 20:25:00,
2013-02-20 12:26:00,43.0,39.2,30.02,South,180,0.0,8.2,87,0.00,,,0.00,WUHU21636XXSP,2013-02-20 20:26:00,
2013-02-20 12:28:00,43.2,39.1,30.01,South,180,2.2,8.2,86,0.00,,,0.00,WUHU21636XXSP,2013-02-20 20:28:00,
2013-02-20 12:30:00,43.0,39.2,30.01,SSE,157,3.5,8.2,87,0.00,,,0.00,WUHU21636XXSP,2013-02-20 20:30:00,
2013-02-20 12:31:00,43.0,39.2,30.01,SSE,157,3.5,8.2,87,0.00,,,0.00,WUHU21636XXSP,2013-02-20 20:31:00,
2013-02-20 12:33:00,43.0,38.9,30.01,SSE,157,3.5,7.6,86,0.00,,,0.00,WUHU21636XXSP,2013-02-20 20:33:00,
2013-02-20 12:35:00,42.8,38.4,30.01,South,180,2.4,3.5,85,0.00,,,0.00,WUHU21636XXSP,2013-02-20 20:35:00,
2013-02-20 12:36:00,42.8,38.4,30.01,South,180,2.4,3.5,85,0.00,,,0.00,WUHU21636XXSP,2013-02-20 20:36:00,
2013-02-20 12:37:00,43.0,39.2,30.01,South,180,2.4,3.5,87,0.00,,,0.00,WUHU21636XXSP,2013-02-20 20:37:00,
2013-02-20 12:38:00,43.0,39.2,30.01,South,180,2.4,3.5,87,0.00,,,0.00,WUHU21636XXSP,2013-02-20 20:38:00,
2013-02-20 12:40:00,43.0,38.9,30.01,SSE,157,0.0,3.5,86,0.00,,,0.00,WUHU21636XXSP,2013-02-20 20:40:00,
2013-02-20 12:41:00,43.2,39.1,30.01,South,180,0.0,3.5,86,0.00,,,0.00,WUHU21636XXSP,2013-02-20 20:41:00,
2013-02-20 12:42:00,43.2,39.1,30.00,South,180,0.0,3.5,86,0.00,,,0.00,WUHU21636XXSP,2013-02-20 20:42:00,
2013-02-20 12:43:00,43.2,39.1,30.01,South,180,0.0,2.4,86,0.00,,,0.00,WUHU21636XXSP,2013-02-20 20:43:00,
2013-02-20 12:45:00,43.2,39.1,30.01,SSW,202,0.4,2.4,86,0.00,,,0.00,WUHU21636XXSP,2013-02-20 20:45:00,
2013-02-20 12:46:00,43.2,39.1,30.01,SSW,202,0.4,2.4,86,0.00,,,0.00,WUHU21636XXSP,2013-02-20 20:46:00,
2013-02-20 12:47:00,43.2,39.1,30.01,SSW,202,0.4,0.4,86,0.00,,,0.00,WUHU21636XXSP,2013-02-20 20:47:00,
2013-02-20 12:48:00,43.2,39.1,30.01,SSW,202,0.4,0.4,86,0.00,,,0.00,WUHU21636XXSP,2013-02-20 20:48:00,
2013-02-20 12:51:00,43.2,39.1,30.01,SSE,157,0.0,0.4,86,0.00,,,0.00,WUHU21636XXSP,2013-02-20 20:51:00,
2013-02-20 12:52:00,43.3,39.2,30.01,SSW,202,0.0,0.4,86,0.00,,,0.00,WUHU21636XXSP,2013-02-20 20:52:00,
2013-02-20 12:53:00,43.3,39.2,30.00,SSW,202,0.0,0.4,86,0.00,,,0.00,WUHU21636XXSP,2013-02-20 20:53:00,
2013-02-20 12:56:00,43.3,38.9,30.01,SSE,158,0.6,0.6,85,0.00,,,0.00,WUHU21636XXSP,2013-02-20 20:56:00,
2013-02-20 12:57:00,43.3,38.9,30.01,SSE,166,0.4,0.6,85,0.00,,,0.00,WUHU21636XXSP,2013-02-20 20:57:00,
2013-02-20 12:59:00,43.3,38.9,30.01,SSW,202,0.2,0.6,85,0.00,,,0.00,WUHU21636XXSP,2013-02-20 20:59:00,
2013-02-20 13:01:00,43.3,39.2,30.00,South,180,0.0,0.6,86,0.00,,,0.00,WUHU21636XXSP,2013-02-20 21:01:00,
2013-02-20 13:02:00,43.3,39.2,30.00,South,180,0.0,0.6,86,0.00,,,0.00,WUHU21636XXSP,2013-02-20 21:02:00,
2013-02-20 13:04:00,43.3,38.9,30.00,South,180,0.0,0.6,85,0.00,,,0.00,WUHU21636XXSP,2013-02-20 21:04:00,
2013-02-20 13:06:00,43.3,38.9,30.00,South,180,0.0,0.2,85,0.00,,,0.00,WUHU21636XXSP,2013-02-20 21:06:00,
2013-02-20 13:07:00,43.3,38.9,30.00,ESE,112,0.0,0.2,85,0.00,,,0.00,WUHU21636XXSP,2013-02-20 21:07:00,
2013-02-20 13:09:00,43.2,38.8,30.00,SSE,157,0.0,0.0,85,0.00,,,0.00,WUHU21636XXSP,2013-02-20 21:09:00,
2013-02-20 13:11:00,43.3,38.9,30.00,SW,225,5.5,6.9,85,0.00,,,0.00,WUHU21636XXSP,2013-02-20 21:11:00,
2013-02-20 13:12:00,43.2,38.8,30.00,South,176,4.3,8.5,85,0.00,,,0.00,WUHU21636XXSP,2013-02-20 21:12:00,
2013-02-20 13:14:00,43.2,38.8,30.00,SW,215,2.5,8.5,85,0.00,,,0.00,WUHU21636XXSP,2013-02-20 21:14:00,
2013-02-20 13:16:00,43.3,38.9,30.00,South,180,1.1,8.5,85,0.00,,,0.00,WUHU21636XXSP,2013-02-20 21:16:00,
2013-02-20 13:18:00,43.3,38.9,30.00,South,180,1.1,8.5,85,0.00,,,0.00,WUHU21636XXSP,2013-02-20 21:18:00,
2013-02-20 13:19:00,43.3,38.9,30.00,SSW,204,4.1,8.5,85,0.00,,,0.00,WUHU21636XXSP,2013-02-20 21:19:00,
2013-02-20 13:21:00,43.2,38.8,30.00,South,181,3.1,8.5,85,0.00,,,0.00,WUHU21636XXSP,2013-02-20 21:21:00,
2013-02-20 13:22:00,43.2,38.8,30.00,South,191,2.7,8.2,85,0.00,,,0.00,WUHU21636XXSP,2013-02-20 21:22:00,
2013-02-20 13:23:00,43.2,38.8,30.00,SSW,206,2.4,8.2,85,0.00,,,0.00,WUHU21636XXSP,2013-02-20 21:23:00,
2013-02-20 13:24:00,43.2,38.8,30.00,SW,225,2.0,7.6,85,0.00,,,0.00,WUHU21636XXSP,2013-02-20 21:24:00,
2013-02-20 13:27:00,43.3,38.9,30.00,SSE,157,4.2,7.6,85,0.00,,,0.00,WUHU21636XXSP,2013-02-20 21:27:00,
2013-02-20 13:28:00,43.2,38.8,30.00,SE,146,2.8,7.6,85,0.00,,,0.00,WUHU21636XXSP,2013-02-20 21:28:00,
2013-02-20 13:29:00,43.2,39.1,30.00,SE,135,1.9,7.1,86,0.00,,,0.00,WUHU21636XXSP,2013-02-20 21:29:00,
2013-02-20 13:32:00,43.3,38.9,30.00,SE,135,1.1,7.1,85,0.00,,,0.00,WUHU21636XXSP,2013-02-20 21:32:00,
2013-02-20 13:33:00,43.3,38.9,30.00,SSW,202,0.0,7.1,85,0.00,,,0.00,WUHU21636XXSP,2013-02-20 21:33:00,
2013-02-20 13:34:00,43.3,39.2,30.00,SSE,157,0.0,7.1,86,0.00,,,0.00,WUHU21636XXSP,2013-02-20 21:34:00,
2013-02-20 13:37:00,43.3,39.2,30.00,SE,135,0.0,2.2,86,0.00,,,0.00,WUHU21636XXSP,2013-02-20 21:37:00,
2013-02-20 13:38:00,43.3,38.9,30.00,South,180,0.8,2.2,85,0.00,,,0.00,WUHU21636XXSP,2013-02-20 21:38:00,
2013-02-20 13:39:00,43.3,38.9,30.00,South,180,0.8,1.1,85,0.00,,,0.00,WUHU21636XXSP,2013-02-20 21:39:00,
2013-02-20 13:42:00,43.3,39.2,29.99,South,180,0.0,0.8,86,0.00,,,0.00,WUHU21636XXSP,2013-02-20 21:42:00,
2013-02-20 13:43:00,43.3,39.2,29.99,South,180,0.0,0.8,86,0.00,,,0.00,WUHU21636XXSP,2013-02-20 21:43:00,
2013-02-20 13:44:00,43.3,38.9,29.99,SSW,202,3.1,3.1,85,0.00,,,0.00,WUHU21636XXSP,2013-02-20 21:44:00,
2013-02-20 13:47:00,43.3,38.9,30.00,South,186,1.9,3.1,85,0.00,,,0.00,WUHU21636XXSP,2013-02-20 21:47:00,
2013-02-20 13:48:00,43.3,38.9,30.00,SSE,157,1.1,3.1,85,0.00,,,0.00,WUHU21636XXSP,2013-02-20 21:48:00,
2013-02-20 13:50:00,43.3,38.9,30.00,SSE,157,1.1,3.1,85,0.00,,,0.00,WUHU21636XXSP,2013-02-20 21:50:00,
2013-02-20 13:52:00,43.3,38.9,29.99,SSE,157,0.0,3.1,85,0.00,,,0.00,WUHU21636XXSP,2013-02-20 21:52:00,
2013-02-20 13:53:00,43.3,39.2,30.00,SSE,157,0.0,3.1,86,0.00,,,0.00,WUHU21636XXSP,2013-02-20 21:53:00,
2013-02-20 13:55:00,43.3,39.2,30.00,SSE,157,0.0,3.1,86,0.00,,,0.00,WUHU21636XXSP,2013-02-20 21:55:00,
2013-02-20 13:58:00,43.3,39.2,29.99,SE,135,0.0,1.1,86,0.00,,,0.00,WUHU21636XXSP,2013-02-20 21:58:00,
2013-02-20 14:00:00,43.3,38.9,29.99,South,175,5.4,9.1,85,0.00,,,0.00,WUHU21636XXSP,2013-02-20 22:00:00,
2013-02-20 14:03:00,43.3,38.9,29.99,South,186,2.7,9.1,85,0.00,,,0.00,WUHU21636XXSP,2013-02-20 22:03:00,
2013-02-20 14:04:00,43.3,39.2,29.99,South,178,1.6,9.1,86,0.00,,,0.00,WUHU21636XXSP,2013-02-20 22:04:00,
2013-02-20 14:05:00,43.3,39.2,29.99,SSE,157,1.1,9.1,86,0.00,,,0.00,WUHU21636XXSP,2013-02-20 22:05:00,
2013-02-20 14:08:00,43.2,38.8,30.00,South,190,3.4,10.2,85,0.00,,,0.00,WUHU21636XXSP,2013-02-20 22:08:00,
2013-02-20 14:09:00,43.2,38.8,30.00,SSW,201,3.1,10.2,85,0.00,,,0.00,WUHU21636XXSP,2013-02-20 22:09:00,
2013-02-20 14:10:00,43.2,38.8,30.00,SSW,200,2.1,10.2,85,0.00,,,0.00,WUHU21636XXSP,2013-02-20 22:10:00,
2013-02-20 14:13:00,43.2,38.5,30.00,SSE,166,3.0,10.2,83,0.00,,,0.00,WUHU21636XXSP,2013-02-20 22:13:00,
2013-02-20 14:14:00,43.2,38.5,30.00,SSE,166,3.1,10.2,83,0.00,,,0.00,WUHU21636XXSP,2013-02-20 22:14:00,
2013-02-20 14:15:00,43.2,38.5,29.99,South,180,2.0,10.2,83,0.00,,,0.00,WUHU21636XXSP,2013-02-20 22:15:00,
2013-02-20 14:18:00,43.3,38.6,30.00,SW,236,1.5,7.3,83,0.00,,,0.00,WUHU21636XXSP,2013-02-20 22:18:00,
2013-02-20 14:19:00,43.3,38.6,30.00,SW,225,1.3,7.3,83,0.00,,,0.00,WUHU21636XXSP,2013-02-20 22:19:00,
2013-02-20 14:20:00,43.2,38.5,29.99,SSW,202,1.1,7.3,83,0.00,,,0.00,WUHU21636XXSP,2013-02-20 22:20:00,
2013-02-20 14:24:00,43.3,38.9,29.99,SSE,157,0.0,2.0,85,0.00,,,0.00,WUHU21636XXSP,2013-02-20 22:24:00,
2013-02-20 14:26:00,43.3,38.9,29.99,SSE,157,0.0,1.7,85,0.00,,,0.00,WUHU21636XXSP,2013-02-20 22:26:00,
2013-02-20 14:29:00,43.3,38.9,29.99,SSE,157,0.0,1.1,85,0.00,,,0.00,WUHU21636XXSP,2013-02-20 22:29:00,
2013-02-20 14:31:00,43.3,38.9,29.99,SE,135,2.9,2.9,85,0.00,,,0.00,WUHU21636XXSP,2013-02-20 22:31:00,
2013-02-20 14:34:00,43.3,38.9,29.99,SE,135,2.9,2.9,85,0.00,,,0.00,WUHU21636XXSP,2013-02-20 22:34:00,
2013-02-20 14:35:00,43.3,38.9,29.99,SE,135,2.9,2.9,85,0.00,,,0.00,WUHU21636XXSP,2013-02-20 22:35:00,
2013-02-20 14:36:00,43.3,38.6,29.99,SE,135,0.0,2.9,83,0.00,,,0.00,WUHU21636XXSP,2013-02-20 22:36:00,
2013-02-20 14:39:00,43.2,38.5,30.00,SSE,157,5.3,8.7,83,0.00,,,0.00,WUHU21636XXSP,2013-02-20 22:39:00,
2013-02-20 14:40:00,43.2,38.5,30.00,SE,135,4.4,8.7,83,0.00,,,0.00,WUHU21636XXSP,2013-02-20 22:40:00,
2013-02-20 14:41:00,43.2,38.5,30.00,SSE,157,2.6,8.7,83,0.00,,,0.00,WUHU21636XXSP,2013-02-20 22:41:00,
2013-02-20 14:44:00,43.2,38.5,30.00,SSE,156,1.6,8.7,83,0.00,,,0.00,WUHU21636XXSP,2013-02-20 22:44:00,
2013-02-20 14:45:00,43.2,38.5,30.00,SE,135,0.2,8.7,83,0.00,,,0.00,WUHU21636XXSP,2013-02-20 22:45:00,
2013-02-20 14:46:00,43.0,38.3,30.00,South,171,3.2,10.9,83,0.00,,,0.00,WUHU21636XXSP,2013-02-20 22:46:00,
2013-02-20 14:49:00,43.2,38.5,30.00,SE,135,0.8,10.9,83,0.00,,,0.00,WUHU21636XXSP,2013-02-20 22:49:00,
2013-02-20 14:50:00,43.2,38.5,30.00,SE,135,0.8,10.9,83,0.00,,,0.00,WUHU21636XXSP,2013-02-20 22:50:00,
2013-02-20 14:51:00,43.0,38.3,30.00,SE,135,0.0,10.9,83,0.00,,,0.00,WUHU21636XXSP,2013-02-20 22:51:00,
2013-02-20 14:54:00,43.2,38.8,30.00,SE,135,0.0,10.9,85,0.00,,,0.00,WUHU21636XXSP,2013-02-20 22:54:00,
2013-02-20 14:55:00,43.2,38.8,30.00,SE,135,0.0,10.9,85,0.00,,,0.00,WUHU21636XXSP,2013-02-20 22:55:00,
2013-02-20 14:56:00,43.2,38.8,30.00,SSE,157,0.0,0.8,85,0.00,,,0.00,WUHU21636XXSP,2013-02-20 22:56:00,
2013-02-20 14:59:00,43.2,38.8,30.00,SSW,202,1.5,1.5,85,0.00,,,0.00,WUHU21636XXSP,2013-02-20 22:59:00,
2013-02-20 15:00:00,43.2,38.8,30.00,SSW,202,1.5,1.5,85,0.00,,,0.00,WUHU21636XXSP,2013-02-20 23:00:00,
2013-02-20 15:02:00,43.0,38.6,30.00,SSE,157,3.3,3.3,85,0.00,,,0.00,WUHU21636XXSP,2013-02-20 23:02:00,
2013-02-20 15:04:00,43.0,38.9,30.00,SSE,158,2.4,3.3,86,0.00,,,0.00,WUHU21636XXSP,2013-02-20 23:04:00,
2013-02-20 15:05:00,43.0,38.9,30.00,SSE,161,1.4,3.3,86,0.00,,,0.00,WUHU21636XXSP,2013-02-20 23:05:00,
2013-02-20 15:07:00,43.0,39.2,30.00,SSE,157,0.8,3.3,87,0.00,,,0.00,WUHU21636XXSP,2013-02-20 23:07:00,
2013-02-20 15:09:00,42.8,39.0,30.00,SE,135,3.3,3.3,87,0.00,,,0.00,WUHU21636XXSP,2013-02-20 23:09:00,
2013-02-20 15:10:00,42.8,39.0,30.00,SE,135,3.3,3.3,87,0.00,,,0.00,WUHU21636XXSP,2013-02-20 23:10:00,
2013-02-20 15:11:00,42.6,38.8,30.00,SSW,202,3.5,3.5,87,0.00,,,0.00,WUHU21636XXSP,2013-02-20 23:11:00,
2013-02-20 15:12:00,42.6,38.8,30.00,SSW,202,3.5,3.5,87,0.00,,,0.00,WUHU21636XXSP,2013-02-20 23:12:00,
2013-02-20 15:14:00,42.4,38.9,30.00,South,180,0.0,3.5,88,0.00,,,0.00,WUHU21636XXSP,2013-02-20 23:14:00,
2013-02-20 15:15:00,42.4,38.9,30.00,SSE,157,0.6,3.5,88,0.00,,,0.00,WUHU21636XXSP,2013-02-20 23:15:00,
2013-02-20 15:16:00,42.4,38.9,30.00,SSE,157,0.6,3.5,88,0.00,,,0.00,WUHU21636XXSP,2013-02-20 23:16:00,
2013-02-20 15:17:00,42.3,39.1,30.00,SSE,157,0.6,3.5,89,0.00,,,0.00,WUHU21636XXSP,2013-02-20 23:17:00,
2013-02-20 15:19:00,42.1,39.2,30.00,SSE,157,3.8,3.8,90,0.00,,,0.00,WUHU21636XXSP,2013-02-20 23:19:00,
2013-02-20 15:20:00,42.1,39.2,30.00,SSE,157,3.8,3.8,90,0.00,,,0.00,WUHU21636XXSP,2013-02-20 23:20:00,
2013-02-20 15:21:00,42.1,39.2,30.00,SSE,157,3.8,3.8,90,0.00,,,0.00,WUHU21636XXSP,2013-02-20 23:21:00,
2013-02-20 15:22:00,42.1,39.2,30.00,SSE,157,3.8,3.8,90,0.00,,,0.00,WUHU21636XXSP,2013-02-20 23:22:00,
2013-02-20 15:24:00,41.9,39.3,30.00,SSE,157,0.6,3.8,91,0.00,,,0.00,WUHU21636XXSP,2013-02-20 23:24:00,
2013-02-20 15:25:00,41.7,39.1,30.00,SSE,157,0.6,3.8,91,0.00,,,0.00,WUHU21636XXSP,2013-02-20 23:25:00,
2013-02-20 15:26:00,41.7,39.1,30.00,SSE,157,0.6,3.8,91,0.00,,,0.00,WUHU21636XXSP,2013-02-20 23:26:00,
2013-02-20 15:27:00,41.7,39.1,30.00,SSE,157,0.0,3.8,91,0.00,,,0.00,WUHU21636XXSP,2013-02-20 23:27:00,
2013-02-20 15:30:00,41.5,38.9,30.00,SE,135,2.2,3.8,91,0.02,,,0.02,WUHU21636XXSP,2013-02-20 23:30:00,
2013-02-20 15:31:00,41.5,38.9,30.00,SE,135,2.2,2.2,91,0.02,,,0.02,WUHU21636XXSP,2013-02-20 23:31:00,
2013-02-20 15:33:00,41.5,38.9,30.00,SE,135,2.2,2.2,91,0.02,,,0.02,WUHU21636XXSP,2013-02-20 23:33:00,
2013-02-20 15:35:00,41.5,38.9,30.00,SE,135,0.0,2.2,91,0.02,,,0.02,WUHU21636XXSP,2013-02-20 23:35:00,
2013-02-20 15:36:00,41.4,38.8,30.00,SE,135,0.0,2.2,91,0.02,,,0.02,WUHU21636XXSP,2013-02-20 23:36:00,
2013-02-20 15:38:00,41.4,38.8,30.00,SE,135,0.0,2.2,91,0.02,,,0.02,WUHU21636XXSP,2013-02-20 23:38:00,
2013-02-20 15:39:00,41.4,38.8,30.00,SE,135,0.0,2.2,91,0.02,,,0.02,WUHU21636XXSP,2013-02-20 23:39:00,
2013-02-20 15:41:00,41.5,38.9,30.00,SE,135,0.0,2.2,91,0.02,,,0.02,WUHU21636XXSP,2013-02-20 23:41:00,
2013-02-20 15:42:00,41.5,38.9,30.00,SE,135,0.0,0.0,91,0.02,,,0.02,WUHU21636XXSP,2013-02-20 23:42:00,
2013-02-20 15:43:00,41.4,39.1,30.00,SE,135,0.0,0.0,92,0.02,,,0.02,WUHU21636XXSP,2013-02-20 23:43:00,
2013-02-20 15:44:00,41.4,39.1,30.00,SE,135,0.0,0.0,92,0.02,,,0.02,WUHU21636XXSP,2013-02-20 23:44:00,
2013-02-20 15:46:00,41.4,39.1,30.00,SE,135,0.0,0.0,92,0.02,,,0.02,WUHU21636XXSP,2013-02-20 23:46:00,
2013-02-20 15:47:00,41.4,39.4,30.00,SSE,157,0.0,0.0,93,0.02,,,0.02,WUHU21636XXSP,2013-02-20 23:47:00,
2013-02-20 15:48:00,41.4,39.4,30.00,SSE,157,0.0,0.0,93,0.02,,,0.02,WUHU21636XXSP,2013-02-20 23:48:00,
2013-02-20 15:50:00,41.2,39.2,30.00,SSE,157,0.0,0.0,93,0.02,,,0.02,WUHU21636XXSP,2013-02-20 23:50:00,
2013-02-20 15:51:00,41.2,39.2,30.00,SSE,157,0.0,0.0,93,0.02,,,0.02,WUHU21636XXSP,2013-02-20 23:51:00,
2013-02-20 15:53:00,41.2,39.2,30.00,SSE,157,0.0,0.0,93,0.04,,,0.04,WUHU21636XXSP,2013-02-20 23:53:00,
2013-02-20 15:55:00,41.2,39.2,30.00,SSE,157,0.0,0.0,93,0.04,,,0.04,WUHU21636XXSP,2013-02-20 23:55:00,
2013-02-20 15:56:00,41.2,39.5,30.00,SSE,157,0.0,0.0,94,0.04,,,0.04,WUHU21636XXSP,2013-02-20 23:56:00,
2013-02-20 15:58:00,41.2,39.2,30.01,SSE,157,0.0,0.0,93,0.04,,,0.04,WUHU21636XXSP,2013-02-20 23:58:00,
2013-02-20 16:00:00,41.2,39.5,30.00,SSE,157,0.0,0.0,94,0.04,,,0.04,WUHU21636XXSP,2013-02-21 00:00:00,
2013-02-20 16:01:00,41.2,39.5,30.00,SSE,157,0.0,0.0,94,0.04,,,0.04,WUHU21636XXSP,2013-02-21 00:01:00,
2013-02-20 16:03:00,41.2,39.5,30.00,SSE,157,0.0,0.0,94,0.06,,,0.06,WUHU21636XXSP,2013-02-21 00:03:00,
2013-02-20 16:05:00,41.2,39.5,30.00,SSE,157,0.0,0.0,94,0.06,,,0.06,WUHU21636XXSP,2013-02-21 00:05:00,
2013-02-20 16:06:00,41.2,39.5,30.00,SSE,157,0.0,0.0,94,0.06,,,0.06,WUHU21636XXSP,2013-02-21 00:06:00,
2013-02-20 16:08:00,41.4,40.0,30.01,SSE,157,0.0,0.0,95,0.06,,,0.06,WUHU21636XXSP,2013-02-21 00:08:00,
2013-02-20 16:10:00,41.4,40.0,30.01,SSE,157,0.0,0.0,95,0.06,,,0.06,WUHU21636XXSP,2013-02-21 00:10:00,
2013-02-20 16:11:00,41.2,39.5,30.01,SSE,157,0.0,0.0,94,0.06,,,0.06,WUHU21636XXSP,2013-02-21 00:11:00,
2013-02-20 16:13:00,41.2,39.5,30.01,SSE,157,0.0,0.0,94,0.06,,,0.06,WUHU21636XXSP,2013-02-21 00:13:00,
2013-02-20 16:15:00,41.2,39.5,30.01,SSE,157,0.0,0.0,94,0.06,,,0.06,WUHU21636XXSP,2013-02-21 00:15:00,
2013-02-20 16:16:00,41.2,39.5,30.01,SSE,157,0.0,0.0,94,0.06,,,0.06,WUHU21636XXSP,2013-02-21 00:16:00,
2013-02-20 16:18:00,41.2,39.5,30.01,SSE,157,0.0,0.0,94,0.06,,,0.06,WUHU21636XXSP,2013-02-21 00:18:00,
2013-02-20 16:20:00,41.2,39.5,30.01,SSE,157,1.7,1.7,94,0.06,,,0.06,WUHU21636XXSP,2013-02-21 00:20:00,
2013-02-20 16:21:00,41.2,39.5,30.01,SSE,157,1.7,1.7,94,0.06,,,0.06,WUHU21636XXSP,2013-02-21 00:21:00,
2013-02-20 16:23:00,41.0,39.6,30.01,SE,135,0.0,1.7,95,0.06,,,0.06,WUHU21636XXSP,2013-02-21 00:23:00,
2013-02-20 16:24:00,40.8,39.4,30.01,SE,135,0.0,1.7,95,0.08,,,0.08,WUHU21636XXSP,2013-02-21 00:24:00,
2013-02-20 16:25:00,40.8,39.4,30.01,SE,135,0.0,1.7,95,0.08,,,0.08,WUHU21636XXSP,2013-02-21 00:25:00,
2013-02-20 16:26:00,40.8,39.4,30.01,SE,135,0.0,1.7,95,0.08,,,0.08,WUHU21636XXSP,2013-02-21 00:26:00,
2013-02-20 16:28:00,40.6,39.2,30.01,SE,135,0.0,1.7,95,0.08,,,0.08,WUHU21636XXSP,2013-02-21 00:28:00,
2013-02-20 16:29:00,40.6,39.2,30.01,SE,135,0.0,1.7,95,0.08,,,0.08,WUHU21636XXSP,2013-02-21 00:29:00,
2013-02-20 16:31:00,40.6,39.2,30.01,SE,135,0.0,1.7,95,0.06,,,0.08,WUHU21636XXSP,2013-02-21 00:31:00,
2013-02-20 16:33:00,40.6,39.2,30.01,SE,135,0.0,0.0,95,0.06,,,0.08,WUHU21636XXSP,2013-02-21 00:33:00,
2013-02-20 16:34:00,40.6,39.2,30.01,SE,135,0.8,0.8,95,0.06,,,0.08,WUHU21636XXSP,2013-02-21 00:34:00,
2013-02-20 16:36:00,40.6,39.2,30.01,SE,135,0.8,0.8,95,0.06,,,0.08,WUHU21636XXSP,2013-02-21 00:36:00,
2013-02-20 16:38:00,40.6,39.2,30.01,SE,135,0.0,0.8,95,0.06,,,0.08,WUHU21636XXSP,2013-02-21 00:38:00,
2013-02-20 16:40:00,40.3,38.9,30.01,SE,135,1.3,1.3,95,0.06,,,0.08,WUHU21636XXSP,2013-02-21 00:40:00,
2013-02-20 16:41:00,40.5,39.1,30.01,SE,135,1.3,1.3,95,0.06,,,0.08,WUHU21636XXSP,2013-02-21 00:41:00,
2013-02-20 16:43:00,40.3,38.9,30.01,SE,135,0.0,1.3,95,0.06,,,0.08,WUHU21636XXSP,2013-02-21 00:43:00,
2013-02-20 16:45:00,40.3,38.9,30.01,SE,135,0.0,1.3,95,0.06,,,0.08,WUHU21636XXSP,2013-02-21 00:45:00,
2013-02-20 16:46:00,40.3,38.9,30.01,SE,135,0.0,1.3,95,0.08,,,0.10,WUHU21636XXSP,2013-02-21 00:46:00,
2013-02-20 16:49:00,40.3,38.9,30.01,SE,135,0.0,1.3,95,0.08,,,0.10,WUHU21636XXSP,2013-02-21 00:49:00,
2013-02-20 16:50:00,40.3,38.9,30.01,SSW,202,1.7,1.7,95,0.08,,,0.10,WUHU21636XXSP,2013-02-21 00:50:00,
2013-02-20 16:51:00,40.3,38.9,30.01,SSW,202,1.7,1.7,95,0.08,,,0.10,WUHU21636XXSP,2013-02-21 00:51:00,
2013-02-20 16:54:00,40.3,38.9,30.01,South,180,0.0,1.7,95,0.06,,,0.10,WUHU21636XXSP,2013-02-21 00:54:00,
2013-02-20 16:55:00,40.3,38.9,30.01,South,180,0.0,1.7,95,0.06,,,0.10,WUHU21636XXSP,2013-02-21 00:55:00,
2013-02-20 16:56:00,40.1,38.7,30.01,SSE,157,0.0,1.7,95,0.06,,,0.10,WUHU21636XXSP,2013-02-21 00:56:00,
2013-02-20 16:57:00,40.1,38.7,30.01,SSE,157,0.0,1.7,95,0.06,,,0.10,WUHU21636XXSP,2013-02-21 00:57:00,
2013-02-20 16:59:00,40.1,38.7,30.01,SE,135,0.0,1.7,95,0.06,,,0.10,WUHU21636XXSP,2013-02-21 00:59:00,
2013-02-20 17:00:00,40.1,38.7,30.01,SE,135,0.0,1.7,95,0.06,,,0.10,WUHU21636XXSP,2013-02-21 01:00:00,
2013-02-20 17:01:00,40.1,38.7,30.01,SSE,157,0.0,1.7,95,0.06,,,0.10,WUHU21636XXSP,2013-02-21 01:01:00,
2013-02-20 17:02:00,40.1,38.7,30.01,SSE,157,0.0,0.0,95,0.04,,,0.10,WUHU21636XXSP,2013-02-21 01:02:00,
2013-02-20 17:04:00,39.9,38.5,30.01,SSE,157,3.3,3.3,95,0.04,,,0.10,WUHU21636XXSP,2013-02-21 01:04:00,
2013-02-20 17:05:00,39.9,38.5,30.01,SSE,157,3.3,3.3,95,0.04,,,0.10,WUHU21636XXSP,2013-02-21 01:05:00,
2013-02-20 17:06:00,39.9,38.5,30.01,SSE,157,3.3,3.3,95,0.04,,,0.10,WUHU21636XXSP,2013-02-21 01:06:00,
2013-02-20 17:07:00,39.9,38.5,30.01,SSE,157,0.0,3.3,95,0.06,,,0.12,WUHU21636XXSP,2013-02-21 01:07:00,
2013-02-20 17:10:00,39.9,38.5,30.01,SSE,157,0.0,3.3,95,0.06,,,0.12,WUHU21636XXSP,2013-02-21 01:10:00,
2013-02-20 17:11:00,39.9,38.5,30.01,SSE,157,0.0,3.3,95,0.06,,,0.12,WUHU21636XXSP,2013-02-21 01:11:00,
2013-02-20 17:12:00,39.9,38.5,30.01,SSE,157,0.0,3.3,95,0.06,,,0.12,WUHU21636XXSP,2013-02-21 01:12:00,
2013-02-20 17:15:00,39.9,38.5,30.01,SSE,157,0.0,0.0,95,0.06,,,0.12,WUHU21636XXSP,2013-02-21 01:15:00,
2013-02-20 17:16:00,39.9,38.5,30.01,SSE,157,3.5,3.5,95,0.06,,,0.12,WUHU21636XXSP,2013-02-21 01:16:00,
2013-02-20 17:17:00,39.9,38.5,30.01,SSE,157,3.5,3.5,95,0.06,,,0.12,WUHU21636XXSP,2013-02-21 01:17:00,
2013-02-20 17:20:00,39.7,38.3,30.01,SSE,157,0.0,3.5,95,0.06,,,0.12,WUHU21636XXSP,2013-02-21 01:20:00,
2013-02-20 17:21:00,39.7,38.3,30.01,SSE,157,0.0,3.5,95,0.06,,,0.12,WUHU21636XXSP,2013-02-21 01:21:00,
2013-02-20 17:22:00,39.7,38.3,30.01,SSE,157,0.0,3.5,95,0.06,,,0.12,WUHU21636XXSP,2013-02-21 01:22:00,
2013-02-20 17:25:00,39.7,38.3,30.01,SSE,157,0.0,3.5,95,0.04,,,0.12,WUHU21636XXSP,2013-02-21 01:25:00,
2013-02-20 17:27:00,39.7,38.3,30.01,SSE,157,0.0,3.5,95,0.04,,,0.12,WUHU21636XXSP,2013-02-21 01:27:00,
2013-02-20 17:30:00,39.7,38.6,30.01,SSE,157,0.0,0.0,96,0.04,,,0.12,WUHU21636XXSP,2013-02-21 01:30:00,
2013-02-20 17:32:00,39.7,38.6,30.01,SSE,157,0.0,0.0,96,0.04,,,0.12,WUHU21636XXSP,2013-02-21 01:32:00,
2013-02-20 17:33:00,39.7,38.6,30.01,SSE,157,0.0,0.0,96,0.04,,,0.12,WUHU21636XXSP,2013-02-21 01:33:00,
2013-02-20 17:35:00,39.7,38.6,30.01,SSE,157,0.0,0.0,96,0.04,,,0.12,WUHU21636XXSP,2013-02-21 01:35:00,
2013-02-20 17:37:00,39.7,38.6,30.01,SSE,157,0.0,0.0,96,0.04,,,0.12,WUHU21636XXSP,2013-02-21 01:37:00,
2013-02-20 17:38:00,39.7,38.6,30.01,SSE,157,0.0,0.0,96,0.04,,,0.12,WUHU21636XXSP,2013-02-21 01:38:00,
2013-02-20 17:40:00,39.7,38.6,30.01,SSE,157,0.0,0.0,96,0.06,,,0.14,WUHU21636XXSP,2013-02-21 01:40:00,
2013-02-20 17:42:00,39.7,38.6,30.01,South,180,0.0,0.0,96,0.06,,,0.14,WUHU21636XXSP,2013-02-21 01:42:00,
2013-02-20 17:43:00,39.7,38.6,30.01,SSE,157,0.0,0.0,96,0.06,,,0.14,WUHU21636XXSP,2013-02-21 01:43:00,
2013-02-20 17:46:00,39.7,38.6,30.01,South,180,1.5,1.5,96,0.04,,,0.14,WUHU21636XXSP,2013-02-21 01:46:00,
2013-02-20 17:47:00,39.7,38.6,30.01,South,180,1.5,1.5,96,0.04,,,0.14,WUHU21636XXSP,2013-02-21 01:47:00,
2013-02-20 17:49:00,39.7,38.6,30.01,South,180,1.5,1.5,96,0.04,,,0.14,WUHU21636XXSP,2013-02-21 01:49:00,
2013-02-20 17:51:00,39.7,38.6,30.01,South,180,0.0,1.5,96,0.04,,,0.14,WUHU21636XXSP,2013-02-21 01:51:00,
2013-02-20 17:52:00,39.7,38.6,30.01,South,180,0.0,1.5,96,0.04,,,0.14,WUHU21636XXSP,2013-02-21 01:52:00,
2013-02-20 17:54:00,39.6,38.5,30.02,SW,225,0.0,1.5,96,0.04,,,0.14,WUHU21636XXSP,2013-02-21 01:54:00,
2013-02-20 17:56:00,39.6,38.5,30.01,SW,225,0.0,1.5,96,0.04,,,0.14,WUHU21636XXSP,2013-02-21 01:56:00,
2013-02-20 17:57:00,39.6,38.5,30.02,SSE,157,0.0,1.5,96,0.04,,,0.14,WUHU21636XXSP,2013-02-21 01:57:00,
2013-02-20 17:58:00,39.6,38.5,30.02,SSE,157,0.0,0.0,96,0.04,,,0.14,WUHU21636XXSP,2013-02-21 01:58:00,
2013-02-20 17:59:00,39.4,38.3,30.01,SW,215,5.5,6.9,96,0.04,,,0.14,WUHU21636XXSP,2013-02-21 01:59:00,
2013-02-20 18:01:00,39.4,38.3,30.01,South,180,3.1,6.9,96,0.04,,,0.14,WUHU21636XXSP,2013-02-21 02:01:00,
2013-02-20 18:02:00,39.2,37.8,30.02,South,180,2.9,6.9,95,0.04,,,0.14,WUHU21636XXSP,2013-02-21 02:02:00,
2013-02-20 18:03:00,39.2,37.8,30.02,South,180,2.9,6.9,95,0.04,,,0.14,WUHU21636XXSP,2013-02-21 02:03:00,
2013-02-20 18:04:00,39.0,37.9,30.02,SW,225,0.0,6.9,96,0.04,,,0.14,WUHU21636XXSP,2013-02-21 02:04:00,
2013-02-20 18:06:00,39.0,37.9,30.01,South,180,0.0,6.9,96,0.04,,,0.14,WUHU21636XXSP,2013-02-21 02:06:00,
2013-02-20 18:07:00,39.0,37.9,30.01,South,180,0.0,6.9,96,0.02,,,0.14,WUHU21636XXSP,2013-02-21 02:07:00,
2013-02-20 18:08:00,39.0,37.9,30.01,South,180,0.0,6.9,96,0.02,,,0.14,WUHU21636XXSP,2013-02-21 02:08:00,
2013-02-20 18:10:00,39.0,37.9,30.01,South,180,0.0,2.9,96,0.02,,,0.14,WUHU21636XXSP,2013-02-21 02:10:00,
2013-02-20 18:11:00,39.0,37.9,30.02,South,180,0.0,2.9,96,0.02,,,0.14,WUHU21636XXSP,2013-02-21 02:11:00,
2013-02-20 18:12:00,38.8,37.4,30.01,South,180,0.0,0.0,95,0.02,,,0.14,WUHU21636XXSP,2013-02-21 02:12:00,
2013-02-20 18:13:00,38.8,37.4,30.01,South,180,0.0,0.0,95,0.02,,,0.14,WUHU21636XXSP,2013-02-21 02:13:00,
2013-02-20 18:15:00,38.8,37.4,30.01,South,180,0.0,0.0,95,0.02,,,0.14,WUHU21636XXSP,2013-02-21 02:15:00,
2013-02-20 18:16:00,38.8,37.4,30.01,South,180,0.0,0.0,95,0.02,,,0.14,WUHU21636XXSP,2013-02-21 02:16:00,
2013-02-20 18:17:00,38.8,37.7,30.01,South,180,0.0,0.0,96,0.02,,,0.14,WUHU21636XXSP,2013-02-21 02:17:00,
2013-02-20 18:18:00,38.8,37.7,30.01,South,180,0.0,0.0,96,0.02,,,0.14,WUHU21636XXSP,2013-02-21 02:18:00,
2013-02-20 18:20:00,38.8,37.7,30.01,South,180,0.0,0.0,96,0.02,,,0.14,WUHU21636XXSP,2013-02-21 02:20:00,
2013-02-20 18:21:00,38.7,37.6,30.01,South,180,0.0,0.0,96,0.02,,,0.14,WUHU21636XXSP,2013-02-21 02:21:00,
2013-02-20 18:22:00,38.7,37.6,30.01,South,180,0.0,0.0,96,0.02,,,0.14,WUHU21636XXSP,2013-02-21 02:22:00,
2013-02-20 18:23:00,38.7,37.6,30.01,South,180,0.0,0.0,96,0.02,,,0.14,WUHU21636XXSP,2013-02-21 02:23:00,
2013-02-20 18:25:00,38.5,37.4,30.01,SSE,157,0.0,0.0,96,0.02,,,0.14,WUHU21636XXSP,2013-02-21 02:25:00,
2013-02-20 18:26:00,38.5,37.4,30.01,SSE,157,0.0,0.0,96,0.02,,,0.14,WUHU21636XXSP,2013-02-21 02:26:00,
2013-02-20 18:28:00,38.5,37.4,30.01,SSE,157,0.0,0.0,96,0.02,,,0.14,WUHU21636XXSP,2013-02-21 02:28:00,
2013-02-20 18:31:00,38.5,37.4,30.01,SSE,157,0.0,0.0,96,0.02,,,0.14,WUHU21636XXSP,2013-02-21 02:31:00,
2013-02-20 18:32:00,38.5,37.4,30.01,SSE,157,0.0,0.0,96,0.02,,,0.14,WUHU21636XXSP,2013-02-21 02:32:00,
2013-02-20 18:33:00,38.5,37.4,30.01,SSE,157,0.0,0.0,96,0.02,,,0.14,WUHU21636XXSP,2013-02-21 02:33:00,
2013-02-20 18:36:00,38.5,37.4,30.02,SSE,157,0.0,0.0,96,0.02,,,0.14,WUHU21636XXSP,2013-02-21 02:36:00,
2013-02-20 18:37:00,38.5,37.4,30.02,SSE,157,0.0,0.0,96,0.02,,,0.14,WUHU21636XXSP,2013-02-21 02:37:00,
2013-02-20 18:38:00,38.5,37.4,30.02,SSE,157,0.0,0.0,96,0.02,,,0.14,WUHU21636XXSP,2013-02-21 02:38:00,
2013-02-20 18:41:00,38.5,37.4,30.02,SSE,157,0.0,0.0,96,0.00,,,0.14,WUHU21636XXSP,2013-02-21 02:41:00,
2013-02-20 18:42:00,38.5,37.4,30.02,SSE,157,0.0,0.0,96,0.00,,,0.14,WUHU21636XXSP,2013-02-21 02:42:00,
2013-02-20 18:43:00,38.5,37.4,30.02,SSE,157,0.0,0.0,96,0.00,,,0.14,WUHU21636XXSP,2013-02-21 02:43:00,
2013-02-20 18:44:00,38.5,37.4,30.02,SSE,157,0.0,0.0,96,0.00,,,0.14,WUHU21636XXSP,2013-02-21 02:44:00,
2013-02-20 18:46:00,38.5,37.4,30.02,SSE,157,0.0,0.0,96,0.00,,,0.14,WUHU21636XXSP,2013-02-21 02:46:00,
2013-02-20 18:47:00,38.5,37.4,30.02,SSE,157,0.0,0.0,96,0.00,,,0.14,WUHU21636XXSP,2013-02-21 02:47:00,
2013-02-20 18:48:00,38.5,37.4,30.02,SSE,157,0.0,0.0,96,0.00,,,0.14,WUHU21636XXSP,2013-02-21 02:48:00,
2013-02-20 18:49:00,38.5,37.4,30.02,SSE,157,0.0,0.0,96,0.00,,,0.14,WUHU21636XXSP,2013-02-21 02:49:00,
2013-02-20 18:51:00,38.5,37.4,30.02,SSE,157,0.0,0.0,96,0.00,,,0.14,WUHU21636XXSP,2013-02-21 02:51:00,
2013-02-20 18:52:00,38.5,37.4,30.02,SSE,157,0.0,0.0,96,0.00,,,0.14,WUHU21636XXSP,2013-02-21 02:52:00,
2013-02-20 18:53:00,38.5,37.4,30.02,SSE,157,0.0,0.0,96,0.00,,,0.14,WUHU21636XXSP,2013-02-21 02:53:00,
2013-02-20 18:54:00,38.5,37.4,30.02,SSE,157,0.0,0.0,96,0.00,,,0.14,WUHU21636XXSP,2013-02-21 02:54:00,
2013-02-20 18:56:00,38.5,37.6,30.02,SSE,157,0.0,0.0,97,0.00,,,0.14,WUHU21636XXSP,2013-02-21 02:56:00,
2013-02-20 18:57:00,38.5,37.6,30.02,SSE,157,0.0,0.0,97,0.00,,,0.14,WUHU21636XXSP,2013-02-21 02:57:00,
2013-02-20 18:58:00,38.5,37.6,30.02,SSE,157,0.8,0.8,97,0.00,,,0.14,WUHU21636XXSP,2013-02-21 02:58:00,
2013-02-20 18:59:00,38.5,37.6,30.02,SSE,157,0.8,0.8,97,0.00,,,0.14,WUHU21636XXSP,2013-02-21 02:59:00,
2013-02-20 19:01:00,38.5,37.6,30.02,SSE,157,0.8,0.8,97,0.00,,,0.14,WUHU21636XXSP,2013-02-21 03:01:00,
2013-02-20 19:02:00,38.5,37.6,30.02,SSE,157,0.0,0.8,97,0.00,,,0.14,WUHU21636XXSP,2013-02-21 03:02:00,
2013-02-20 19:03:00,38.5,37.6,30.02,SSE,157,0.0,0.8,97,0.00,,,0.14,WUHU21636XXSP,2013-02-21 03:03:00,
2013-02-20 19:04:00,38.5,37.6,30.02,SSE,157,0.0,0.8,97,0.00,,,0.14,WUHU21636XXSP,2013-02-21 03:04:00,
2013-02-20 19:06:00,38.3,37.4,30.02,SSE,157,0.0,0.8,97,0.00,,,0.14,WUHU21636XXSP,2013-02-21 03:06:00,
2013-02-20 19:07:00,38.3,37.4,30.02,SSE,157,2.2,2.2,97,0.00,,,0.14,WUHU21636XXSP,2013-02-21 03:07:00,
2013-02-20 19:08:00,38.3,37.4,30.02,SSE,157,2.2,2.2,97,0.00,,,0.14,WUHU21636XXSP,2013-02-21 03:08:00,
2013-02-20 19:09:00,38.5,37.6,30.02,SSE,157,2.2,2.2,97,0.00,,,0.14,WUHU21636XXSP,2013-02-21 03:09:00,
2013-02-20 19:11:00,38.3,37.4,30.02,SSE,157,0.0,2.2,97,0.00,,,0.14,WUHU21636XXSP,2013-02-21 03:11:00,
2013-02-20 19:12:00,38.3,37.4,30.02,SSE,157,0.0,2.2,97,0.00,,,0.14,WUHU21636XXSP,2013-02-21 03:12:00,
2013-02-20 19:13:00,38.3,37.4,30.02,SSE,157,0.0,2.2,97,0.00,,,0.14,WUHU21636XXSP,2013-02-21 03:13:00,
2013-02-20 19:14:00,38.3,37.4,30.02,SSE,157,0.0,2.2,97,0.00,,,0.14,WUHU21636XXSP,2013-02-21 03:14:00,
2013-02-20 19:16:00,38.3,37.4,30.01,SSE,157,0.0,2.2,97,0.00,,,0.14,WUHU21636XXSP,2013-02-21 03:16:00,
2013-02-20 19:17:00,38.3,37.4,30.01,SSE,157,0.0,2.2,97,0.00,,,0.14,WUHU21636XXSP,2013-02-21 03:17:00,
2013-02-20 19:18:00,38.3,37.4,30.02,SSE,157,0.0,2.2,97,0.00,,,0.14,WUHU21636XXSP,2013-02-21 03:18:00,
2013-02-20 19:19:00,38.3,37.4,30.02,SSE,157,0.0,0.0,97,0.00,,,0.14,WUHU21636XXSP,2013-02-21 03:19:00,
2013-02-20 19:21:00,38.3,37.4,30.02,SSE,157,0.0,0.0,97,0.00,,,0.14,WUHU21636XXSP,2013-02-21 03:21:00,
2013-02-20 19:22:00,38.3,37.4,30.02,SSE,157,0.0,0.0,97,0.00,,,0.14,WUHU21636XXSP,2013-02-21 03:22:00,
2013-02-20 19:23:00,38.3,37.4,30.02,SSE,157,0.0,0.0,97,0.00,,,0.14,WUHU21636XXSP,2013-02-21 03:23:00,
2013-02-20 19:24:00,38.3,37.4,30.02,SSE,157,0.0,0.0,97,0.00,,,0.14,WUHU21636XXSP,2013-02-21 03:24:00,
2013-02-20 19:27:00,38.3,37.4,30.02,SSE,157,2.4,2.4,97,0.00,,,0.14,WUHU21636XXSP,2013-02-21 03:27:00,
2013-02-20 19:29:00,38.3,37.4,30.02,SSE,157,2.4,2.4,97,0.00,,,0.14,WUHU21636XXSP,2013-02-21 03:29:00,
2013-02-20 19:32:00,38.3,37.4,30.02,SSE,157,0.0,2.4,97,0.00,,,0.14,WUHU21636XXSP,2013-02-21 03:32:00,
2013-02-20 19:33:00,38.3,37.4,30.02,SSE,157,0.0,2.4,97,0.00,,,0.14,WUHU21636XXSP,2013-02-21 03:33:00,
2013-02-20 19:34:00,38.3,37.4,30.02,SSE,157,0.0,2.4,97,0.00,,,0.14,WUHU21636XXSP,2013-02-21 03:34:00,
2013-02-20 19:37:00,38.3,37.4,30.02,SSE,157,0.0,2.4,97,0.00,,,0.14,WUHU21636XXSP,2013-02-21 03:37:00,
2013-02-20 19:38:00,38.3,37.4,30.02,SSE,157,0.0,0.0,97,0.00,,,0.14,WUHU21636XXSP,2013-02-21 03:38:00,
2013-02-20 19:39:00,38.3,37.4,30.02,SSE,157,0.0,0.0,97,0.00,,,0.14,WUHU21636XXSP,2013-02-21 03:39:00,
2013-02-20 19:40:00,38.3,37.4,30.02,SSE,157,0.0,0.0,97,0.00,,,0.14,WUHU21636XXSP,2013-02-21 03:40:00,
2013-02-20 19:42:00,38.3,37.4,30.02,SSE,157,0.0,0.0,97,0.00,,,0.14,WUHU21636XXSP,2013-02-21 03:42:00,
2013-02-20 19:43:00,38.3,37.4,30.02,SSE,157,0.0,0.0,97,0.00,,,0.14,WUHU21636XXSP,2013-02-21 03:43:00,
2013-02-20 19:44:00,38.3,37.4,30.02,SSE,157,0.0,0.0,97,0.00,,,0.14,WUHU21636XXSP,2013-02-21 03:44:00,
2013-02-20 19:45:00,38.3,37.4,30.02,SSE,157,0.0,0.0,97,0.00,,,0.14,WUHU21636XXSP,2013-02-21 03:45:00,
2013-02-20 19:48:00,38.3,37.4,30.02,SSE,157,0.0,0.0,97,0.00,,,0.14,WUHU21636XXSP,2013-02-21 03:48:00,
2013-02-20 19:49:00,38.3,37.4,30.02,SSE,157,0.0,0.0,97,0.00,,,0.14,WUHU21636XXSP,2013-02-21 03:49:00,
2013-02-20 19:50:00,38.1,37.2,30.02,SSE,157,0.0,0.0,97,0.00,,,0.14,WUHU21636XXSP,2013-02-21 03:50:00,
2013-02-20 19:53:00,38.1,37.2,30.02,SSE,157,0.0,0.0,97,0.00,,,0.14,WUHU21636XXSP,2013-02-21 03:53:00,
2013-02-20 19:54:00,38.1,37.2,30.02,SSE,157,0.0,0.0,97,0.00,,,0.14,WUHU21636XXSP,2013-02-21 03:54:00,
2013-02-20 19:55:00,38.1,37.2,30.02,SSE,157,0.0,0.0,97,0.00,,,0.14,WUHU21636XXSP,2013-02-21 03:55:00,
2013-02-20 19:58:00,38.1,37.2,30.02,SSE,157,0.0,0.0,97,0.00,,,0.14,WUHU21636XXSP,2013-02-21 03:58:00,
2013-02-20 19:59:00,38.1,37.2,30.02,SSE,157,0.0,0.0,97,0.00,,,0.14,WUHU21636XXSP,2013-02-21 03:59:00,
2013-02-20 20:00:00,38.3,37.4,30.02,SSE,157,0.0,0.0,97,0.00,,,0.14,WUHU21636XXSP,2013-02-21 04:00:00,
2013-02-20 20:04:00,38.3,37.4,30.02,SSE,157,0.0,0.0,97,0.00,,,0.14,WUHU21636XXSP,2013-02-21 04:04:00,
2013-02-20 20:05:00,38.3,37.4,30.02,SSE,157,2.6,2.6,97,0.00,,,0.14,WUHU21636XXSP,2013-02-21 04:05:00,
2013-02-20 20:09:00,38.3,37.4,30.02,SSE,157,0.0,2.6,97,0.00,,,0.14,WUHU21636XXSP,2013-02-21 04:09:00,
2013-02-20 20:10:00,38.3,37.4,30.02,SSE,157,0.0,2.6,97,0.00,,,0.14,WUHU21636XXSP,2013-02-21 04:10:00,
2013-02-20 20:14:00,38.3,37.4,30.02,SSE,157,0.0,2.6,97,0.00,,,0.14,WUHU21636XXSP,2013-02-21 04:14:00,
2013-02-20 20:16:00,38.3,37.4,30.02,SSE,157,0.0,2.6,97,0.00,,,0.14,WUHU21636XXSP,2013-02-21 04:16:00,
2013-02-20 20:19:00,38.3,37.4,30.02,SSE,157,0.0,0.0,97,0.00,,,0.14,WUHU21636XXSP,2013-02-21 04:19:00,
2013-02-20 20:21:00,38.3,37.4,30.02,SSE,157,0.0,0.0,97,0.00,,,0.14,WUHU21636XXSP,2013-02-21 04:21:00,
2013-02-20 20:24:00,38.3,37.4,30.02,SSE,157,0.0,0.0,97,0.00,,,0.14,WUHU21636XXSP,2013-02-21 04:24:00,
2013-02-20 20:26:00,38.3,37.4,30.02,SSE,157,0.0,0.0,97,0.00,,,0.14,WUHU21636XXSP,2013-02-21 04:26:00,
2013-02-20 20:29:00,38.3,37.4,30.02,SSE,157,0.0,0.0,97,0.00,,,0.14,WUHU21636XXSP,2013-02-21 04:29:00,
2013-02-20 20:30:00,38.3,37.4,30.02,SSE,157,0.0,0.0,97,0.00,,,0.14,WUHU21636XXSP,2013-02-21 04:30:00,
2013-02-20 20:31:00,38.3,37.4,30.02,SSE,157,0.0,0.0,97,0.00,,,0.14,WUHU21636XXSP,2013-02-21 04:31:00,
2013-02-20 20:34:00,38.3,37.4,30.02,SSE,157,0.0,0.0,97,0.00,,,0.14,WUHU21636XXSP,2013-02-21 04:34:00,
2013-02-20 20:35:00,38.3,37.4,30.02,SSE,157,0.0,0.0,97,0.00,,,0.14,WUHU21636XXSP,2013-02-21 04:35:00,
2013-02-20 20:36:00,38.3,37.4,30.02,SSE,157,0.0,0.0,97,0.00,,,0.14,WUHU21636XXSP,2013-02-21 04:36:00,
2013-02-20 20:39:00,38.3,37.4,30.02,SSE,157,0.0,0.0,97,0.00,,,0.14,WUHU21636XXSP,2013-02-21 04:39:00,
2013-02-20 20:40:00,38.3,37.4,30.02,SSE,157,0.0,0.0,97,0.00,,,0.14,WUHU21636XXSP,2013-02-21 04:40:00,
2013-02-20 20:41:00,38.3,37.4,30.02,SSE,157,0.0,0.0,97,0.00,,,0.14,WUHU21636XXSP,2013-02-21 04:41:00,
2013-02-20 20:44:00,38.3,37.4,30.02,SSE,157,0.0,0.0,97,0.00,,,0.14,WUHU21636XXSP,2013-02-21 04:44:00,
2013-02-20 20:45:00,38.3,37.4,30.02,SSE,157,0.0,0.0,97,0.00,,,0.14,WUHU21636XXSP,2013-02-21 04:45:00,
2013-02-20 20:46:00,38.3,37.4,30.02,SSE,157,0.0,0.0,97,0.00,,,0.14,WUHU21636XXSP,2013-02-21 04:46:00,
2013-02-20 20:50:00,38.5,37.6,30.02,SSE,157,0.0,0.0,97,0.00,,,0.14,WUHU21636XXSP,2013-02-21 04:50:00,
2013-02-20 20:51:00,38.5,37.6,30.02,SSE,157,0.0,0.0,97,0.00,,,0.14,WUHU21636XXSP,2013-02-21 04:51:00,
2013-02-20 20:55:00,38.5,37.6,30.02,SSE,157,0.0,0.0,97,0.00,,,0.14,WUHU21636XXSP,2013-02-21 04:55:00,
2013-02-20 20:56:00,38.5,37.6,30.02,SSE,157,0.0,0.0,97,0.00,,,0.14,WUHU21636XXSP,2013-02-21 04:56:00,
2013-02-20 21:00:00,38.7,37.8,30.02,SSE,157,0.0,0.0,97,0.00,,,0.14,WUHU21636XXSP,2013-02-21 05:00:00,
2013-02-20 21:05:00,38.7,37.8,30.02,SSE,157,0.0,0.0,97,0.00,,,0.14,WUHU21636XXSP,2013-02-21 05:05:00,
2013-02-20 21:10:00,38.8,37.9,30.02,SSE,157,0.0,0.0,97,0.00,,,0.14,WUHU21636XXSP,2013-02-21 05:10:00,
2013-02-20 21:15:00,38.8,37.9,30.02,SSE,157,0.0,0.0,97,0.00,,,0.14,WUHU21636XXSP,2013-02-21 05:15:00,
2013-02-20 21:16:00,38.8,37.9,30.02,SSE,157,0.0,0.0,97,0.00,,,0.14,WUHU21636XXSP,2013-02-21 05:16:00,
2013-02-20 21:20:00,38.8,37.9,30.03,SSE,157,0.0,0.0,97,0.00,,,0.14,WUHU21636XXSP,2013-02-21 05:20:00,
2013-02-20 21:21:00,38.8,37.9,30.03,SSE,157,0.0,0.0,97,0.00,,,0.14,WUHU21636XXSP,2013-02-21 05:21:00,
2013-02-20 21:25:00,38.8,37.9,30.03,SSE,157,0.0,0.0,97,0.00,,,0.14,WUHU21636XXSP,2013-02-21 05:25:00,
2013-02-20 21:26:00,38.8,37.9,30.03,SSE,157,0.0,0.0,97,0.00,,,0.14,WUHU21636XXSP,2013-02-21 05:26:00,
2013-02-20 21:34:00,38.8,37.9,30.02,South,180,0.0,0.0,97,0.00,,,0.14,WUHU21636XXSP,2013-02-21 05:34:00,
2013-02-20 21:39:00,39.0,38.1,30.02,SSE,157,4.6,4.6,97,0.00,,,0.14,WUHU21636XXSP,2013-02-21 05:39:00,
2013-02-20 21:44:00,39.0,38.1,30.02,SSE,157,0.0,4.6,97,0.00,,,0.14,WUHU21636XXSP,2013-02-21 05:44:00,
2013-02-20 21:49:00,39.0,38.1,30.02,South,180,0.0,4.6,97,0.00,,,0.14,WUHU21636XXSP,2013-02-21 05:49:00,
2013-02-20 21:54:00,39.0,38.1,30.03,South,180,0.0,0.0,97,0.00,,,0.14,WUHU21636XXSP,2013-02-21 05:54:00,
2013-02-20 21:55:00,39.0,38.1,30.03,South,180,0.0,0.0,97,0.00,,,0.14,WUHU21636XXSP,2013-02-21 05:55:00,
2013-02-20 21:59:00,39.0,38.1,30.03,South,180,0.0,0.0,97,0.00,,,0.14,WUHU21636XXSP,2013-02-21 05:59:00,
2013-02-20 22:00:00,39.0,38.1,30.03,South,180,0.0,0.0,97,0.00,,,0.14,WUHU21636XXSP,2013-02-21 06:00:00,
2013-02-20 22:04:00,39.0,38.1,30.03,East,90,0.0,0.0,97,0.00,,,0.14,WUHU21636XXSP,2013-02-21 06:04:00,
2013-02-20 22:05:00,39.0,38.1,30.03,East,90,0.0,0.0,97,0.00,,,0.14,WUHU21636XXSP,2013-02-21 06:05:00,
2013-02-20 22:09:00,39.0,38.1,30.03,SE,135,1.1,1.1,97,0.00,,,0.14,WUHU21636XXSP,2013-02-21 06:09:00,
2013-02-20 22:10:00,39.0,38.1,30.03,SE,135,1.1,1.1,97,0.00,,,0.14,WUHU21636XXSP,2013-02-21 06:10:00,
2013-02-20 22:15:00,39.0,38.1,30.03,SSE,157,0.8,1.1,97,0.00,,,0.14,WUHU21636XXSP,2013-02-21 06:15:00,
2013-02-20 22:20:00,38.8,37.9,30.04,SSE,157,0.0,2.4,97,0.00,,,0.14,WUHU21636XXSP,2013-02-21 06:20:00,
2013-02-20 22:25:00,38.8,37.9,30.04,SSE,157,0.0,2.4,97,0.00,,,0.14,WUHU21636XXSP,2013-02-21 06:25:00,
2013-02-20 22:26:00,38.8,37.9,30.04,SSE,157,0.0,2.4,97,0.00,,,0.14,WUHU21636XXSP,2013-02-21 06:26:00,
2013-02-20 22:30:00,39.0,38.1,30.04,South,180,0.0,0.0,97,0.00,,,0.14,WUHU21636XXSP,2013-02-21 06:30:00,
2013-02-20 22:31:00,39.0,38.1,30.04,South,180,0.0,0.0,97,0.00,,,0.14,WUHU21636XXSP,2013-02-21 06:31:00,
2013-02-20 22:35:00,39.0,38.1,30.04,South,180,0.0,0.0,97,0.00,,,0.14,WUHU21636XXSP,2013-02-21 06:35:00,
2013-02-20 22:36:00,39.0,38.1,30.04,South,180,0.0,0.0,97,0.00,,,0.14,WUHU21636XXSP,2013-02-21 06:36:00,
2013-02-20 22:40:00,39.0,38.1,30.04,South,180,0.0,0.0,97,0.00,,,0.14,WUHU21636XXSP,2013-02-21 06:40:00,
2013-02-20 22:41:00,39.0,38.1,30.04,South,180,0.0,0.0,97,0.00,,,0.14,WUHU21636XXSP,2013-02-21 06:41:00,
2013-02-20 22:45:00,38.8,37.9,30.03,South,180,0.0,0.0,97,0.00,,,0.14,WUHU21636XXSP,2013-02-21 06:45:00,
2013-02-20 22:46:00,38.8,37.9,30.03,South,180,0.4,0.4,97,0.00,,,0.14,WUHU21636XXSP,2013-02-21 06:46:00,
2013-02-20 22:50:00,38.8,37.9,30.03,South,180,0.0,0.4,97,0.00,,,0.14,WUHU21636XXSP,2013-02-21 06:50:00,
2013-02-20 22:51:00,38.8,37.9,30.03,South,180,0.0,0.4,97,0.00,,,0.14,WUHU21636XXSP,2013-02-21 06:51:00,
2013-02-20 22:52:00,38.8,37.9,30.03,South,180,0.0,0.4,97,0.00,,,0.14,WUHU21636XXSP,2013-02-21 06:52:00,
2013-02-20 22:55:00,38.7,37.8,30.03,South,180,0.0,0.4,97,0.00,,,0.14,WUHU21636XXSP,2013-02-21 06:55:00,
2013-02-20 22:56:00,38.7,37.8,30.03,South,180,0.0,0.4,97,0.00,,,0.14,WUHU21636XXSP,2013-02-21 06:56:00,
2013-02-20 22:57:00,38.5,37.6,30.03,South,180,0.0,0.4,97,0.00,,,0.14,WUHU21636XXSP,2013-02-21 06:57:00,
2013-02-20 23:00:00,38.1,37.2,30.03,South,180,0.0,0.0,97,0.00,,,0.14,WUHU21636XXSP,2013-02-21 07:00:00,
2013-02-20 23:01:00,38.1,37.2,30.03,South,180,0.0,0.0,97,0.00,,,0.14,WUHU21636XXSP,2013-02-21 07:01:00,
2013-02-20 23:02:00,38.1,37.2,30.03,South,180,0.0,0.0,97,0.00,,,0.14,WUHU21636XXSP,2013-02-21 07:02:00,
2013-02-20 23:06:00,37.9,37.0,30.03,South,180,0.0,0.0,97,0.00,,,0.14,WUHU21636XXSP,2013-02-21 07:06:00,
2013-02-20 23:07:00,37.9,37.0,30.03,South,180,0.0,0.0,97,0.00,,,0.14,WUHU21636XXSP,2013-02-21 07:07:00,
2013-02-20 23:08:00,37.9,37.0,30.03,South,180,0.0,0.0,97,0.00,,,0.14,WUHU21636XXSP,2013-02-21 07:08:00,
2013-02-20 23:11:00,37.8,36.9,30.02,South,180,0.0,0.0,97,0.00,,,0.14,WUHU21636XXSP,2013-02-21 07:11:00,
2013-02-20 23:12:00,37.6,36.7,30.02,South,180,0.0,0.0,97,0.00,,,0.14,WUHU21636XXSP,2013-02-21 07:12:00,
2013-02-20 23:13:00,37.6,36.7,30.02,South,180,0.0,0.0,97,0.00,,,0.14,WUHU21636XXSP,2013-02-21 07:13:00,
2013-02-20 23:16:00,37.4,36.5,30.03,South,180,0.0,0.0,97,0.00,,,0.14,WUHU21636XXSP,2013-02-21 07:16:00,
2013-02-20 23:17:00,37.4,36.5,30.03,South,180,0.0,0.0,97,0.00,,,0.14,WUHU21636XXSP,2013-02-21 07:17:00,
2013-02-20 23:18:00,37.4,36.5,30.03,South,180,0.0,0.0,97,0.00,,,0.14,WUHU21636XXSP,2013-02-21 07:18:00,
2013-02-20 23:21:00,37.2,36.3,30.03,South,180,0.0,0.0,97,0.00,,,0.14,WUHU21636XXSP,2013-02-21 07:21:00,
2013-02-20 23:22:00,37.0,36.1,30.03,South,180,0.0,0.0,97,0.00,,,0.14,WUHU21636XXSP,2013-02-21 07:22:00,
2013-02-20 23:23:00,37.0,36.1,30.03,South,180,0.0,0.0,97,0.00,,,0.14,WUHU21636XXSP,2013-02-21 07:23:00,
2013-02-20 23:26:00,37.0,36.1,30.03,South,180,0.0,0.0,97,0.00,,,0.14,WUHU21636XXSP,2013-02-21 07:26:00,
2013-02-20 23:27:00,37.0,36.1,30.02,South,180,0.0,0.0,97,0.00,,,0.14,WUHU21636XXSP,2013-02-21 07:27:00,
2013-02-20 23:28:00,37.0,36.1,30.02,South,180,0.0,0.0,97,0.00,,,0.14,WUHU21636XXSP,2013-02-21 07:28:00,
2013-02-20 23:31:00,36.7,35.8,30.03,South,180,0.0,0.0,97,0.00,,,0.14,WUHU21636XXSP,2013-02-21 07:31:00,
2013-02-20 23:32:00,36.7,35.8,30.02,South,180,0.0,0.0,97,0.00,,,0.14,WUHU21636XXSP,2013-02-21 07:32:00,
2013-02-20 23:33:00,36.7,35.8,30.02,South,180,0.0,0.0,97,0.00,,,0.14,WUHU21636XXSP,2013-02-21 07:33:00,
2013-02-20 23:36:00,36.7,35.8,30.02,South,180,0.0,0.0,97,0.00,,,0.14,WUHU21636XXSP,2013-02-21 07:36:00,
2013-02-20 23:37:00,36.7,35.8,30.02,South,180,0.0,0.0,97,0.00,,,0.14,WUHU21636XXSP,2013-02-21 07:37:00,
2013-02-20 23:38:00,36.7,35.8,30.01,South,180,0.0,0.0,97,0.00,,,0.14,WUHU21636XXSP,2013-02-21 07:38:00,
2013-02-20 23:41:00,36.7,35.8,30.01,South,180,0.0,0.0,97,0.00,,,0.14,WUHU21636XXSP,2013-02-21 07:41:00,
2013-02-20 23:42:00,36.7,35.8,30.01,South,180,0.0,0.0,97,0.00,,,0.14,WUHU21636XXSP,2013-02-21 07:42:00,
2013-02-20 23:43:00,36.7,35.8,30.01,South,180,0.0,0.0,97,0.00,,,0.14,WUHU21636XXSP,2013-02-21 07:43:00,
2013-02-20 23:46:00,36.7,35.8,30.01,South,180,0.0,0.0,97,0.00,,,0.14,WUHU21636XXSP,2013-02-21 07:46:00,
2013-02-20 23:48:00,36.7,35.8,30.01,South,180,0.0,0.0,97,0.00,,,0.14,WUHU21636XXSP,2013-02-21 07:48:00,
2013-02-20 23:49:00,36.7,35.8,30.01,South,180,0.0,0.0,97,0.00,,,0.14,WUHU21636XXSP,2013-02-21 07:49:00,
2013-02-20 23:51:00,36.7,35.8,30.02,South,180,0.0,0.0,97,0.00,,,0.14,WUHU21636XXSP,2013-02-21 07:51:00,
2013-02-20 23:53:00,36.7,35.8,30.01,South,180,0.0,0.0,97,0.00,,,0.14,WUHU21636XXSP,2013-02-21 07:53:00,
2013-02-20 23:54:00,36.7,35.8,30.01,South,180,0.0,0.0,97,0.00,,,0.14,WUHU21636XXSP,2013-02-21 07:54:00,
2013-02-20 23:56:00,36.7,35.8,30.02,South,180,0.0,0.0,97,0.00,,,0.14,WUHU21636XXSP,2013-02-21 07:56:00,
2013-02-20 23:58:00,36.5,35.6,30.02,South,180,0.0,0.0,97,0.00,,,0.14,WUHU21636XXSP,2013-02-21 07:58:00,
2013-02-20 23:59:00,36.5,35.6,30.02,South,180,0.0,0.0,97,0.00,,,0.14,WUHU21636XXSP,2013-02-21 07:59:00,